<?xml version="1.0" encoding="UTF-8" standalone="no" ?>
<gpx xmlns="http://www.topografix.com/GPX/1/1" xmlns:xsi="http://www.w3.org/2001/XMLSchema-instance" xsi:schemaLocation="http://www.topografix.com/GPX/1/1 http://www.topografix.com/GPX/1/1/gpx.xsd" version="1.1" creator="VisuGPX - https://www.visugpx.com">
  <metadata>
    <name>Le Souich 16-01_2022</name>
  </metadata>
  <trk>
    <name><![CDATA[Le Souich: 16 JAN 2022 08:56]]></name>
    <trkseg>
      <trkpt lat="50.22248" lon="2.36676">
        <ele>61.18</ele>
        <time>2022-01-16T07:56:17Z</time>
      </trkpt>
      <trkpt lat="50.22272" lon="2.36672">
        <ele>93.87</ele>
        <time>2022-01-16T07:56:37Z</time>
      </trkpt>
      <trkpt lat="50.2228" lon="2.36661">
        <ele>119.34</ele>
        <time>2022-01-16T07:56:54Z</time>
      </trkpt>
      <trkpt lat="50.22282" lon="2.36658">
        <ele>129.43</ele>
        <time>2022-01-16T07:57:09Z</time>
      </trkpt>
      <trkpt lat="50.22275" lon="2.36653">
        <ele>148.66</ele>
        <time>2022-01-16T07:57:29Z</time>
      </trkpt>
      <trkpt lat="50.22266" lon="2.36658">
        <ele>145.3</ele>
        <time>2022-01-16T07:57:47Z</time>
      </trkpt>
      <trkpt lat="50.22262" lon="2.3666">
        <ele>142.41</ele>
        <time>2022-01-16T07:58:05Z</time>
      </trkpt>
      <trkpt lat="50.22258" lon="2.3666">
        <ele>144.82</ele>
        <time>2022-01-16T07:58:24Z</time>
      </trkpt>
      <trkpt lat="50.22257" lon="2.36661">
        <ele>145.78</ele>
        <time>2022-01-16T07:58:40Z</time>
      </trkpt>
      <trkpt lat="50.22258" lon="2.36656">
        <ele>141.45</ele>
        <time>2022-01-16T07:58:57Z</time>
      </trkpt>
      <trkpt lat="50.22257" lon="2.36656">
        <ele>141.45</ele>
        <time>2022-01-16T07:59:17Z</time>
      </trkpt>
      <trkpt lat="50.22257" lon="2.36657">
        <ele>141.45</ele>
        <time>2022-01-16T07:59:35Z</time>
      </trkpt>
      <trkpt lat="50.22257" lon="2.36657">
        <ele>141.45</ele>
        <time>2022-01-16T07:59:56Z</time>
      </trkpt>
      <trkpt lat="50.22257" lon="2.36657">
        <ele>140.97</ele>
        <time>2022-01-16T08:00:14Z</time>
      </trkpt>
      <trkpt lat="50.22257" lon="2.36658">
        <ele>140.49</ele>
        <time>2022-01-16T08:00:35Z</time>
      </trkpt>
      <trkpt lat="50.22258" lon="2.36657">
        <ele>140.01</ele>
        <time>2022-01-16T08:00:46Z</time>
      </trkpt>
      <trkpt lat="50.22266" lon="2.36644">
        <ele>137.61</ele>
        <time>2022-01-16T08:00:58Z</time>
      </trkpt>
      <trkpt lat="50.22273" lon="2.36627">
        <ele>134.72</ele>
        <time>2022-01-16T08:01:09Z</time>
      </trkpt>
      <trkpt lat="50.22277" lon="2.36596">
        <ele>137.13</ele>
        <time>2022-01-16T08:01:22Z</time>
      </trkpt>
      <trkpt lat="50.22277" lon="2.36584">
        <ele>137.13</ele>
        <time>2022-01-16T08:01:28Z</time>
      </trkpt>
      <trkpt lat="50.22276" lon="2.36579">
        <ele>136.64</ele>
        <time>2022-01-16T08:01:31Z</time>
      </trkpt>
      <trkpt lat="50.22259" lon="2.3656">
        <ele>131.36</ele>
        <time>2022-01-16T08:01:46Z</time>
      </trkpt>
      <trkpt lat="50.22244" lon="2.36547">
        <ele>128.47</ele>
        <time>2022-01-16T08:01:59Z</time>
      </trkpt>
      <trkpt lat="50.2223" lon="2.36533">
        <ele>128.95</ele>
        <time>2022-01-16T08:02:12Z</time>
      </trkpt>
      <trkpt lat="50.22228" lon="2.36526">
        <ele>129.43</ele>
        <time>2022-01-16T08:02:16Z</time>
      </trkpt>
      <trkpt lat="50.22225" lon="2.36499">
        <ele>130.88</ele>
        <time>2022-01-16T08:02:29Z</time>
      </trkpt>
      <trkpt lat="50.22221" lon="2.36472">
        <ele>132.8</ele>
        <time>2022-01-16T08:02:43Z</time>
      </trkpt>
      <trkpt lat="50.22218" lon="2.36442">
        <ele>133.76</ele>
        <time>2022-01-16T08:02:58Z</time>
      </trkpt>
      <trkpt lat="50.22218" lon="2.36416">
        <ele>134.24</ele>
        <time>2022-01-16T08:03:11Z</time>
      </trkpt>
      <trkpt lat="50.22227" lon="2.36391">
        <ele>136.64</ele>
        <time>2022-01-16T08:03:25Z</time>
      </trkpt>
      <trkpt lat="50.2224" lon="2.36365">
        <ele>136.64</ele>
        <time>2022-01-16T08:03:41Z</time>
      </trkpt>
      <trkpt lat="50.22253" lon="2.36347">
        <ele>139.05</ele>
        <time>2022-01-16T08:03:54Z</time>
      </trkpt>
      <trkpt lat="50.22266" lon="2.3633">
        <ele>140.49</ele>
        <time>2022-01-16T08:04:07Z</time>
      </trkpt>
      <trkpt lat="50.2228" lon="2.36313">
        <ele>140.97</ele>
        <time>2022-01-16T08:04:20Z</time>
      </trkpt>
      <trkpt lat="50.22289" lon="2.36296">
        <ele>142.41</ele>
        <time>2022-01-16T08:04:31Z</time>
      </trkpt>
      <trkpt lat="50.22292" lon="2.36292">
        <ele>142.41</ele>
        <time>2022-01-16T08:04:34Z</time>
      </trkpt>
      <trkpt lat="50.22301" lon="2.36274">
        <ele>142.89</ele>
        <time>2022-01-16T08:04:46Z</time>
      </trkpt>
      <trkpt lat="50.22309" lon="2.36256">
        <ele>142.41</ele>
        <time>2022-01-16T08:04:57Z</time>
      </trkpt>
      <trkpt lat="50.22311" lon="2.36249">
        <ele>142.89</ele>
        <time>2022-01-16T08:05:01Z</time>
      </trkpt>
      <trkpt lat="50.22314" lon="2.36242">
        <ele>143.37</ele>
        <time>2022-01-16T08:05:05Z</time>
      </trkpt>
      <trkpt lat="50.22318" lon="2.36233">
        <ele>143.37</ele>
        <time>2022-01-16T08:05:10Z</time>
      </trkpt>
      <trkpt lat="50.22321" lon="2.36224">
        <ele>142.89</ele>
        <time>2022-01-16T08:05:15Z</time>
      </trkpt>
      <trkpt lat="50.2233" lon="2.36202">
        <ele>143.37</ele>
        <time>2022-01-16T08:05:28Z</time>
      </trkpt>
      <trkpt lat="50.22338" lon="2.36183">
        <ele>144.82</ele>
        <time>2022-01-16T08:05:39Z</time>
      </trkpt>
      <trkpt lat="50.22347" lon="2.36163">
        <ele>144.82</ele>
        <time>2022-01-16T08:05:51Z</time>
      </trkpt>
      <trkpt lat="50.22355" lon="2.36145">
        <ele>144.82</ele>
        <time>2022-01-16T08:06:02Z</time>
      </trkpt>
      <trkpt lat="50.22364" lon="2.36124">
        <ele>144.34</ele>
        <time>2022-01-16T08:06:14Z</time>
      </trkpt>
      <trkpt lat="50.22367" lon="2.36119">
        <ele>144.34</ele>
        <time>2022-01-16T08:06:18Z</time>
      </trkpt>
      <trkpt lat="50.22371" lon="2.36108">
        <ele>144.34</ele>
        <time>2022-01-16T08:06:24Z</time>
      </trkpt>
      <trkpt lat="50.22375" lon="2.36101">
        <ele>143.85</ele>
        <time>2022-01-16T08:06:28Z</time>
      </trkpt>
      <trkpt lat="50.22379" lon="2.36094">
        <ele>144.34</ele>
        <time>2022-01-16T08:06:33Z</time>
      </trkpt>
      <trkpt lat="50.2239" lon="2.36076">
        <ele>144.82</ele>
        <time>2022-01-16T08:06:46Z</time>
      </trkpt>
      <trkpt lat="50.22402" lon="2.36056">
        <ele>146.74</ele>
        <time>2022-01-16T08:07:00Z</time>
      </trkpt>
      <trkpt lat="50.22412" lon="2.36039">
        <ele>146.26</ele>
        <time>2022-01-16T08:07:12Z</time>
      </trkpt>
      <trkpt lat="50.2242" lon="2.36022">
        <ele>145.78</ele>
        <time>2022-01-16T08:07:23Z</time>
      </trkpt>
      <trkpt lat="50.22423" lon="2.3601">
        <ele>144.82</ele>
        <time>2022-01-16T08:07:30Z</time>
      </trkpt>
      <trkpt lat="50.2242" lon="2.36003">
        <ele>143.85</ele>
        <time>2022-01-16T08:07:34Z</time>
      </trkpt>
      <trkpt lat="50.224" lon="2.35999">
        <ele>139.53</ele>
        <time>2022-01-16T08:07:50Z</time>
      </trkpt>
      <trkpt lat="50.22383" lon="2.36002">
        <ele>134.24</ele>
        <time>2022-01-16T08:08:04Z</time>
      </trkpt>
      <trkpt lat="50.22366" lon="2.36004">
        <ele>131.84</ele>
        <time>2022-01-16T08:08:16Z</time>
      </trkpt>
      <trkpt lat="50.22345" lon="2.36006">
        <ele>131.84</ele>
        <time>2022-01-16T08:08:31Z</time>
      </trkpt>
      <trkpt lat="50.2234" lon="2.36009">
        <ele>130.88</ele>
        <time>2022-01-16T08:08:36Z</time>
      </trkpt>
      <trkpt lat="50.22319" lon="2.36019">
        <ele>133.28</ele>
        <time>2022-01-16T08:08:51Z</time>
      </trkpt>
      <trkpt lat="50.22306" lon="2.36033">
        <ele>132.8</ele>
        <time>2022-01-16T08:09:03Z</time>
      </trkpt>
      <trkpt lat="50.22291" lon="2.36046">
        <ele>131.36</ele>
        <time>2022-01-16T08:09:16Z</time>
      </trkpt>
      <trkpt lat="50.22276" lon="2.36054">
        <ele>129.92</ele>
        <time>2022-01-16T08:09:28Z</time>
      </trkpt>
      <trkpt lat="50.22256" lon="2.36056">
        <ele>130.88</ele>
        <time>2022-01-16T08:09:42Z</time>
      </trkpt>
      <trkpt lat="50.22238" lon="2.3606">
        <ele>132.32</ele>
        <time>2022-01-16T08:09:55Z</time>
      </trkpt>
      <trkpt lat="50.22221" lon="2.36069">
        <ele>134.24</ele>
        <time>2022-01-16T08:10:08Z</time>
      </trkpt>
      <trkpt lat="50.22203" lon="2.36074">
        <ele>134.24</ele>
        <time>2022-01-16T08:10:23Z</time>
      </trkpt>
      <trkpt lat="50.22185" lon="2.36073">
        <ele>134.24</ele>
        <time>2022-01-16T08:10:36Z</time>
      </trkpt>
      <trkpt lat="50.22166" lon="2.36077">
        <ele>132.32</ele>
        <time>2022-01-16T08:10:50Z</time>
      </trkpt>
      <trkpt lat="50.22151" lon="2.36087">
        <ele>131.84</ele>
        <time>2022-01-16T08:11:03Z</time>
      </trkpt>
      <trkpt lat="50.22134" lon="2.36095">
        <ele>135.68</ele>
        <time>2022-01-16T08:11:16Z</time>
      </trkpt>
      <trkpt lat="50.22117" lon="2.36105">
        <ele>137.61</ele>
        <time>2022-01-16T08:11:29Z</time>
      </trkpt>
      <trkpt lat="50.22102" lon="2.36118">
        <ele>139.05</ele>
        <time>2022-01-16T08:11:42Z</time>
      </trkpt>
      <trkpt lat="50.22091" lon="2.36123">
        <ele>139.53</ele>
        <time>2022-01-16T08:11:55Z</time>
      </trkpt>
      <trkpt lat="50.2209" lon="2.36122">
        <ele>140.01</ele>
        <time>2022-01-16T08:12:13Z</time>
      </trkpt>
      <trkpt lat="50.22091" lon="2.36121">
        <ele>140.01</ele>
        <time>2022-01-16T08:12:35Z</time>
      </trkpt>
      <trkpt lat="50.22092" lon="2.36121">
        <ele>140.01</ele>
        <time>2022-01-16T08:12:56Z</time>
      </trkpt>
      <trkpt lat="50.22092" lon="2.3612">
        <ele>139.53</ele>
        <time>2022-01-16T08:13:05Z</time>
      </trkpt>
      <trkpt lat="50.22089" lon="2.36118">
        <ele>139.53</ele>
        <time>2022-01-16T08:13:08Z</time>
      </trkpt>
      <trkpt lat="50.22084" lon="2.36109">
        <ele>138.57</ele>
        <time>2022-01-16T08:13:14Z</time>
      </trkpt>
      <trkpt lat="50.22075" lon="2.36104">
        <ele>135.2</ele>
        <time>2022-01-16T08:13:25Z</time>
      </trkpt>
      <trkpt lat="50.22072" lon="2.36107">
        <ele>134.24</ele>
        <time>2022-01-16T08:13:29Z</time>
      </trkpt>
      <trkpt lat="50.2206" lon="2.36119">
        <ele>132.32</ele>
        <time>2022-01-16T08:13:46Z</time>
      </trkpt>
      <trkpt lat="50.2205" lon="2.3613">
        <ele>131.84</ele>
        <time>2022-01-16T08:13:58Z</time>
      </trkpt>
      <trkpt lat="50.22036" lon="2.36145">
        <ele>130.4</ele>
        <time>2022-01-16T08:14:13Z</time>
      </trkpt>
      <trkpt lat="50.22021" lon="2.36156">
        <ele>127.51</ele>
        <time>2022-01-16T08:14:25Z</time>
      </trkpt>
      <trkpt lat="50.22004" lon="2.36164">
        <ele>127.51</ele>
        <time>2022-01-16T08:14:40Z</time>
      </trkpt>
      <trkpt lat="50.21989" lon="2.36157">
        <ele>126.07</ele>
        <time>2022-01-16T08:14:54Z</time>
      </trkpt>
      <trkpt lat="50.21985" lon="2.36165">
        <ele>124.15</ele>
        <time>2022-01-16T08:15:06Z</time>
      </trkpt>
      <trkpt lat="50.21977" lon="2.36189">
        <ele>122.71</ele>
        <time>2022-01-16T08:15:22Z</time>
      </trkpt>
      <trkpt lat="50.21971" lon="2.36211">
        <ele>119.82</ele>
        <time>2022-01-16T08:15:35Z</time>
      </trkpt>
      <trkpt lat="50.21963" lon="2.36234">
        <ele>117.9</ele>
        <time>2022-01-16T08:15:49Z</time>
      </trkpt>
      <trkpt lat="50.21959" lon="2.36245">
        <ele>120.3</ele>
        <time>2022-01-16T08:16:02Z</time>
      </trkpt>
      <trkpt lat="50.21956" lon="2.36255">
        <ele>122.71</ele>
        <time>2022-01-16T08:16:14Z</time>
      </trkpt>
      <trkpt lat="50.21953" lon="2.36267">
        <ele>122.22</ele>
        <time>2022-01-16T08:16:27Z</time>
      </trkpt>
      <trkpt lat="50.2195" lon="2.36279">
        <ele>119.34</ele>
        <time>2022-01-16T08:16:40Z</time>
      </trkpt>
      <trkpt lat="50.2195" lon="2.36281">
        <ele>118.86</ele>
        <time>2022-01-16T08:16:41Z</time>
      </trkpt>
      <trkpt lat="50.21952" lon="2.36305">
        <ele>119.34</ele>
        <time>2022-01-16T08:16:53Z</time>
      </trkpt>
      <trkpt lat="50.21959" lon="2.36325">
        <ele>118.86</ele>
        <time>2022-01-16T08:17:05Z</time>
      </trkpt>
      <trkpt lat="50.21973" lon="2.3635">
        <ele>118.38</ele>
        <time>2022-01-16T08:17:18Z</time>
      </trkpt>
      <trkpt lat="50.21992" lon="2.36372">
        <ele>121.26</ele>
        <time>2022-01-16T08:17:33Z</time>
      </trkpt>
      <trkpt lat="50.22004" lon="2.36386">
        <ele>123.67</ele>
        <time>2022-01-16T08:17:44Z</time>
      </trkpt>
      <trkpt lat="50.22016" lon="2.36397">
        <ele>124.15</ele>
        <time>2022-01-16T08:17:57Z</time>
      </trkpt>
      <trkpt lat="50.22033" lon="2.36411">
        <ele>125.59</ele>
        <time>2022-01-16T08:18:11Z</time>
      </trkpt>
      <trkpt lat="50.22048" lon="2.36424">
        <ele>126.07</ele>
        <time>2022-01-16T08:18:24Z</time>
      </trkpt>
      <trkpt lat="50.22066" lon="2.36435">
        <ele>127.51</ele>
        <time>2022-01-16T08:18:37Z</time>
      </trkpt>
      <trkpt lat="50.22086" lon="2.36445">
        <ele>127.51</ele>
        <time>2022-01-16T08:18:53Z</time>
      </trkpt>
      <trkpt lat="50.22096" lon="2.36451">
        <ele>126.55</ele>
        <time>2022-01-16T08:19:02Z</time>
      </trkpt>
      <trkpt lat="50.2211" lon="2.36459">
        <ele>125.11</ele>
        <time>2022-01-16T08:19:14Z</time>
      </trkpt>
      <trkpt lat="50.22116" lon="2.36472">
        <ele>127.51</ele>
        <time>2022-01-16T08:19:27Z</time>
      </trkpt>
      <trkpt lat="50.22111" lon="2.36487">
        <ele>128.95</ele>
        <time>2022-01-16T08:19:41Z</time>
      </trkpt>
      <trkpt lat="50.22099" lon="2.3651">
        <ele>130.88</ele>
        <time>2022-01-16T08:19:58Z</time>
      </trkpt>
      <trkpt lat="50.22092" lon="2.36527">
        <ele>130.88</ele>
        <time>2022-01-16T08:20:11Z</time>
      </trkpt>
      <trkpt lat="50.22088" lon="2.3654">
        <ele>131.36</ele>
        <time>2022-01-16T08:20:24Z</time>
      </trkpt>
      <trkpt lat="50.22086" lon="2.36555">
        <ele>129.92</ele>
        <time>2022-01-16T08:20:37Z</time>
      </trkpt>
      <trkpt lat="50.22083" lon="2.36571">
        <ele>129.92</ele>
        <time>2022-01-16T08:20:49Z</time>
      </trkpt>
      <trkpt lat="50.22078" lon="2.36591">
        <ele>129.92</ele>
        <time>2022-01-16T08:21:03Z</time>
      </trkpt>
      <trkpt lat="50.22077" lon="2.36599">
        <ele>131.36</ele>
        <time>2022-01-16T08:21:16Z</time>
      </trkpt>
      <trkpt lat="50.22076" lon="2.3661">
        <ele>130.4</ele>
        <time>2022-01-16T08:21:30Z</time>
      </trkpt>
      <trkpt lat="50.22074" lon="2.36621">
        <ele>128.95</ele>
        <time>2022-01-16T08:21:45Z</time>
      </trkpt>
      <trkpt lat="50.22072" lon="2.36632">
        <ele>128.47</ele>
        <time>2022-01-16T08:22:00Z</time>
      </trkpt>
      <trkpt lat="50.2207" lon="2.36641">
        <ele>128.47</ele>
        <time>2022-01-16T08:22:12Z</time>
      </trkpt>
      <trkpt lat="50.22069" lon="2.36647">
        <ele>128.47</ele>
        <time>2022-01-16T08:22:19Z</time>
      </trkpt>
      <trkpt lat="50.22063" lon="2.36674">
        <ele>126.55</ele>
        <time>2022-01-16T08:22:31Z</time>
      </trkpt>
      <trkpt lat="50.22051" lon="2.36721">
        <ele>125.11</ele>
        <time>2022-01-16T08:22:46Z</time>
      </trkpt>
      <trkpt lat="50.22042" lon="2.36752">
        <ele>125.11</ele>
        <time>2022-01-16T08:22:58Z</time>
      </trkpt>
      <trkpt lat="50.22035" lon="2.36774">
        <ele>125.59</ele>
        <time>2022-01-16T08:23:08Z</time>
      </trkpt>
      <trkpt lat="50.22025" lon="2.3679">
        <ele>126.07</ele>
        <time>2022-01-16T08:23:20Z</time>
      </trkpt>
      <trkpt lat="50.22011" lon="2.36802">
        <ele>127.51</ele>
        <time>2022-01-16T08:23:34Z</time>
      </trkpt>
      <trkpt lat="50.22006" lon="2.36806">
        <ele>130.88</ele>
        <time>2022-01-16T08:23:46Z</time>
      </trkpt>
      <trkpt lat="50.22002" lon="2.36809">
        <ele>134.72</ele>
        <time>2022-01-16T08:24:00Z</time>
      </trkpt>
      <trkpt lat="50.22" lon="2.36816">
        <ele>138.09</ele>
        <time>2022-01-16T08:24:13Z</time>
      </trkpt>
      <trkpt lat="50.21992" lon="2.36828">
        <ele>140.49</ele>
        <time>2022-01-16T08:24:25Z</time>
      </trkpt>
      <trkpt lat="50.2199" lon="2.3683">
        <ele>141.45</ele>
        <time>2022-01-16T08:24:43Z</time>
      </trkpt>
      <trkpt lat="50.2199" lon="2.36833">
        <ele>143.37</ele>
        <time>2022-01-16T08:25:05Z</time>
      </trkpt>
      <trkpt lat="50.2199" lon="2.36834">
        <ele>143.85</ele>
        <time>2022-01-16T08:25:28Z</time>
      </trkpt>
      <trkpt lat="50.21991" lon="2.36835">
        <ele>143.37</ele>
        <time>2022-01-16T08:25:51Z</time>
      </trkpt>
      <trkpt lat="50.21991" lon="2.36836">
        <ele>143.85</ele>
        <time>2022-01-16T08:26:07Z</time>
      </trkpt>
      <trkpt lat="50.21994" lon="2.36858">
        <ele>144.34</ele>
        <time>2022-01-16T08:26:19Z</time>
      </trkpt>
      <trkpt lat="50.21994" lon="2.3686">
        <ele>144.34</ele>
        <time>2022-01-16T08:26:20Z</time>
      </trkpt>
      <trkpt lat="50.21995" lon="2.36879">
        <ele>144.34</ele>
        <time>2022-01-16T08:26:29Z</time>
      </trkpt>
      <trkpt lat="50.21996" lon="2.36884">
        <ele>144.34</ele>
        <time>2022-01-16T08:26:32Z</time>
      </trkpt>
      <trkpt lat="50.21995" lon="2.36913">
        <ele>145.78</ele>
        <time>2022-01-16T08:26:45Z</time>
      </trkpt>
      <trkpt lat="50.21995" lon="2.36941">
        <ele>145.78</ele>
        <time>2022-01-16T08:26:58Z</time>
      </trkpt>
      <trkpt lat="50.21993" lon="2.36969">
        <ele>145.3</ele>
        <time>2022-01-16T08:27:11Z</time>
      </trkpt>
      <trkpt lat="50.21993" lon="2.36994">
        <ele>145.78</ele>
        <time>2022-01-16T08:27:24Z</time>
      </trkpt>
      <trkpt lat="50.21994" lon="2.3702">
        <ele>146.74</ele>
        <time>2022-01-16T08:27:35Z</time>
      </trkpt>
      <trkpt lat="50.21996" lon="2.37049">
        <ele>148.66</ele>
        <time>2022-01-16T08:27:49Z</time>
      </trkpt>
      <trkpt lat="50.21998" lon="2.37073">
        <ele>147.7</ele>
        <time>2022-01-16T08:28:01Z</time>
      </trkpt>
      <trkpt lat="50.21998" lon="2.37075">
        <ele>147.7</ele>
        <time>2022-01-16T08:28:02Z</time>
      </trkpt>
      <trkpt lat="50.21998" lon="2.37092">
        <ele>147.7</ele>
        <time>2022-01-16T08:28:10Z</time>
      </trkpt>
      <trkpt lat="50.22006" lon="2.37122">
        <ele>145.78</ele>
        <time>2022-01-16T08:28:25Z</time>
      </trkpt>
      <trkpt lat="50.22011" lon="2.37148">
        <ele>145.78</ele>
        <time>2022-01-16T08:28:37Z</time>
      </trkpt>
      <trkpt lat="50.22017" lon="2.37174">
        <ele>146.26</ele>
        <time>2022-01-16T08:28:49Z</time>
      </trkpt>
      <trkpt lat="50.22027" lon="2.37202">
        <ele>144.34</ele>
        <time>2022-01-16T08:29:04Z</time>
      </trkpt>
      <trkpt lat="50.22032" lon="2.37233">
        <ele>144.82</ele>
        <time>2022-01-16T08:29:18Z</time>
      </trkpt>
      <trkpt lat="50.22042" lon="2.37261">
        <ele>145.3</ele>
        <time>2022-01-16T08:29:32Z</time>
      </trkpt>
      <trkpt lat="50.22045" lon="2.37283">
        <ele>145.78</ele>
        <time>2022-01-16T08:29:44Z</time>
      </trkpt>
      <trkpt lat="50.22051" lon="2.37303">
        <ele>144.34</ele>
        <time>2022-01-16T08:29:54Z</time>
      </trkpt>
      <trkpt lat="50.22052" lon="2.37306">
        <ele>144.34</ele>
        <time>2022-01-16T08:29:55Z</time>
      </trkpt>
      <trkpt lat="50.22056" lon="2.37319">
        <ele>143.37</ele>
        <time>2022-01-16T08:30:02Z</time>
      </trkpt>
      <trkpt lat="50.22066" lon="2.3735">
        <ele>143.37</ele>
        <time>2022-01-16T08:30:19Z</time>
      </trkpt>
      <trkpt lat="50.22072" lon="2.37373">
        <ele>144.82</ele>
        <time>2022-01-16T08:30:30Z</time>
      </trkpt>
      <trkpt lat="50.22075" lon="2.37388">
        <ele>144.82</ele>
        <time>2022-01-16T08:30:37Z</time>
      </trkpt>
      <trkpt lat="50.22082" lon="2.37391">
        <ele>145.3</ele>
        <time>2022-01-16T08:30:42Z</time>
      </trkpt>
      <trkpt lat="50.22101" lon="2.37376">
        <ele>148.18</ele>
        <time>2022-01-16T08:30:57Z</time>
      </trkpt>
      <trkpt lat="50.22118" lon="2.37358">
        <ele>149.14</ele>
        <time>2022-01-16T08:31:11Z</time>
      </trkpt>
      <trkpt lat="50.22132" lon="2.37341">
        <ele>147.7</ele>
        <time>2022-01-16T08:31:25Z</time>
      </trkpt>
      <trkpt lat="50.22148" lon="2.37324">
        <ele>146.74</ele>
        <time>2022-01-16T08:31:39Z</time>
      </trkpt>
      <trkpt lat="50.22163" lon="2.37308">
        <ele>146.74</ele>
        <time>2022-01-16T08:31:52Z</time>
      </trkpt>
      <trkpt lat="50.22167" lon="2.37309">
        <ele>147.22</ele>
        <time>2022-01-16T08:32:02Z</time>
      </trkpt>
      <trkpt lat="50.22169" lon="2.37312">
        <ele>147.7</ele>
        <time>2022-01-16T08:32:18Z</time>
      </trkpt>
      <trkpt lat="50.22171" lon="2.37316">
        <ele>148.18</ele>
        <time>2022-01-16T08:32:21Z</time>
      </trkpt>
      <trkpt lat="50.22176" lon="2.37339">
        <ele>147.7</ele>
        <time>2022-01-16T08:32:34Z</time>
      </trkpt>
      <trkpt lat="50.22179" lon="2.37365">
        <ele>146.74</ele>
        <time>2022-01-16T08:32:47Z</time>
      </trkpt>
      <trkpt lat="50.22185" lon="2.37393">
        <ele>145.3</ele>
        <time>2022-01-16T08:33:00Z</time>
      </trkpt>
      <trkpt lat="50.22192" lon="2.37419">
        <ele>144.34</ele>
        <time>2022-01-16T08:33:13Z</time>
      </trkpt>
      <trkpt lat="50.22198" lon="2.37445">
        <ele>145.3</ele>
        <time>2022-01-16T08:33:25Z</time>
      </trkpt>
      <trkpt lat="50.22201" lon="2.37464">
        <ele>143.85</ele>
        <time>2022-01-16T08:33:36Z</time>
      </trkpt>
      <trkpt lat="50.22205" lon="2.37487">
        <ele>143.85</ele>
        <time>2022-01-16T08:33:47Z</time>
      </trkpt>
      <trkpt lat="50.22211" lon="2.3751">
        <ele>142.89</ele>
        <time>2022-01-16T08:33:59Z</time>
      </trkpt>
      <trkpt lat="50.22218" lon="2.37536">
        <ele>143.85</ele>
        <time>2022-01-16T08:34:12Z</time>
      </trkpt>
      <trkpt lat="50.22227" lon="2.37568">
        <ele>146.74</ele>
        <time>2022-01-16T08:34:28Z</time>
      </trkpt>
      <trkpt lat="50.22231" lon="2.37593">
        <ele>147.7</ele>
        <time>2022-01-16T08:34:40Z</time>
      </trkpt>
      <trkpt lat="50.22232" lon="2.37623">
        <ele>148.18</ele>
        <time>2022-01-16T08:34:55Z</time>
      </trkpt>
      <trkpt lat="50.22232" lon="2.37648">
        <ele>150.58</ele>
        <time>2022-01-16T08:35:07Z</time>
      </trkpt>
      <trkpt lat="50.22234" lon="2.37671">
        <ele>152.51</ele>
        <time>2022-01-16T08:35:19Z</time>
      </trkpt>
      <trkpt lat="50.22236" lon="2.37699">
        <ele>152.03</ele>
        <time>2022-01-16T08:35:33Z</time>
      </trkpt>
      <trkpt lat="50.22238" lon="2.37724">
        <ele>151.54</ele>
        <time>2022-01-16T08:35:45Z</time>
      </trkpt>
      <trkpt lat="50.22239" lon="2.37752">
        <ele>152.03</ele>
        <time>2022-01-16T08:35:58Z</time>
      </trkpt>
      <trkpt lat="50.2224" lon="2.37785">
        <ele>152.51</ele>
        <time>2022-01-16T08:36:13Z</time>
      </trkpt>
      <trkpt lat="50.22241" lon="2.37813">
        <ele>153.47</ele>
        <time>2022-01-16T08:36:26Z</time>
      </trkpt>
      <trkpt lat="50.22241" lon="2.37843">
        <ele>153.47</ele>
        <time>2022-01-16T08:36:40Z</time>
      </trkpt>
      <trkpt lat="50.22241" lon="2.37868">
        <ele>152.03</ele>
        <time>2022-01-16T08:36:52Z</time>
      </trkpt>
      <trkpt lat="50.22241" lon="2.37896">
        <ele>151.06</ele>
        <time>2022-01-16T08:37:06Z</time>
      </trkpt>
      <trkpt lat="50.22239" lon="2.37931">
        <ele>151.06</ele>
        <time>2022-01-16T08:37:22Z</time>
      </trkpt>
      <trkpt lat="50.22238" lon="2.37958">
        <ele>151.06</ele>
        <time>2022-01-16T08:37:35Z</time>
      </trkpt>
      <trkpt lat="50.22237" lon="2.37988">
        <ele>151.54</ele>
        <time>2022-01-16T08:37:49Z</time>
      </trkpt>
      <trkpt lat="50.22237" lon="2.38016">
        <ele>151.06</ele>
        <time>2022-01-16T08:38:02Z</time>
      </trkpt>
      <trkpt lat="50.22236" lon="2.38043">
        <ele>151.54</ele>
        <time>2022-01-16T08:38:15Z</time>
      </trkpt>
      <trkpt lat="50.22236" lon="2.38067">
        <ele>151.06</ele>
        <time>2022-01-16T08:38:27Z</time>
      </trkpt>
      <trkpt lat="50.22235" lon="2.38097">
        <ele>151.06</ele>
        <time>2022-01-16T08:38:42Z</time>
      </trkpt>
      <trkpt lat="50.22235" lon="2.38118">
        <ele>151.54</ele>
        <time>2022-01-16T08:38:53Z</time>
      </trkpt>
      <trkpt lat="50.22235" lon="2.3814">
        <ele>150.58</ele>
        <time>2022-01-16T08:39:04Z</time>
      </trkpt>
      <trkpt lat="50.22235" lon="2.38143">
        <ele>150.58</ele>
        <time>2022-01-16T08:39:06Z</time>
      </trkpt>
      <trkpt lat="50.22234" lon="2.38168">
        <ele>150.1</ele>
        <time>2022-01-16T08:39:19Z</time>
      </trkpt>
      <trkpt lat="50.22235" lon="2.38194">
        <ele>149.14</ele>
        <time>2022-01-16T08:39:32Z</time>
      </trkpt>
      <trkpt lat="50.22235" lon="2.3822">
        <ele>148.66</ele>
        <time>2022-01-16T08:39:45Z</time>
      </trkpt>
      <trkpt lat="50.22236" lon="2.38245">
        <ele>149.14</ele>
        <time>2022-01-16T08:39:58Z</time>
      </trkpt>
      <trkpt lat="50.22235" lon="2.38268">
        <ele>148.66</ele>
        <time>2022-01-16T08:40:10Z</time>
      </trkpt>
      <trkpt lat="50.22236" lon="2.38291">
        <ele>148.18</ele>
        <time>2022-01-16T08:40:22Z</time>
      </trkpt>
      <trkpt lat="50.22236" lon="2.38319">
        <ele>147.22</ele>
        <time>2022-01-16T08:40:35Z</time>
      </trkpt>
      <trkpt lat="50.22236" lon="2.38342">
        <ele>147.22</ele>
        <time>2022-01-16T08:40:47Z</time>
      </trkpt>
      <trkpt lat="50.22235" lon="2.3837">
        <ele>146.74</ele>
        <time>2022-01-16T08:41:01Z</time>
      </trkpt>
      <trkpt lat="50.22235" lon="2.38395">
        <ele>145.78</ele>
        <time>2022-01-16T08:41:13Z</time>
      </trkpt>
      <trkpt lat="50.22235" lon="2.3842">
        <ele>145.3</ele>
        <time>2022-01-16T08:41:25Z</time>
      </trkpt>
      <trkpt lat="50.22235" lon="2.38446">
        <ele>144.34</ele>
        <time>2022-01-16T08:41:37Z</time>
      </trkpt>
      <trkpt lat="50.22235" lon="2.38472">
        <ele>143.37</ele>
        <time>2022-01-16T08:41:50Z</time>
      </trkpt>
      <trkpt lat="50.22234" lon="2.38498">
        <ele>141.93</ele>
        <time>2022-01-16T08:42:03Z</time>
      </trkpt>
      <trkpt lat="50.22233" lon="2.38515">
        <ele>142.41</ele>
        <time>2022-01-16T08:42:16Z</time>
      </trkpt>
      <trkpt lat="50.22232" lon="2.38519">
        <ele>142.89</ele>
        <time>2022-01-16T08:42:31Z</time>
      </trkpt>
      <trkpt lat="50.22232" lon="2.38519">
        <ele>144.82</ele>
        <time>2022-01-16T08:42:45Z</time>
      </trkpt>
      <trkpt lat="50.22231" lon="2.3852">
        <ele>145.3</ele>
        <time>2022-01-16T08:43:03Z</time>
      </trkpt>
      <trkpt lat="50.22231" lon="2.3852">
        <ele>145.3</ele>
        <time>2022-01-16T08:43:23Z</time>
      </trkpt>
      <trkpt lat="50.22231" lon="2.38519">
        <ele>144.82</ele>
        <time>2022-01-16T08:43:38Z</time>
      </trkpt>
      <trkpt lat="50.22231" lon="2.38519">
        <ele>144.34</ele>
        <time>2022-01-16T08:44:00Z</time>
      </trkpt>
      <trkpt lat="50.22231" lon="2.38524">
        <ele>144.82</ele>
        <time>2022-01-16T08:44:20Z</time>
      </trkpt>
      <trkpt lat="50.22236" lon="2.38543">
        <ele>145.78</ele>
        <time>2022-01-16T08:44:32Z</time>
      </trkpt>
      <trkpt lat="50.22238" lon="2.38548">
        <ele>146.26</ele>
        <time>2022-01-16T08:44:46Z</time>
      </trkpt>
      <trkpt lat="50.22242" lon="2.38556">
        <ele>145.3</ele>
        <time>2022-01-16T08:44:59Z</time>
      </trkpt>
      <trkpt lat="50.22243" lon="2.3857">
        <ele>143.37</ele>
        <time>2022-01-16T08:45:11Z</time>
      </trkpt>
      <trkpt lat="50.22242" lon="2.38575">
        <ele>143.85</ele>
        <time>2022-01-16T08:45:23Z</time>
      </trkpt>
      <trkpt lat="50.2224" lon="2.38581">
        <ele>143.85</ele>
        <time>2022-01-16T08:45:35Z</time>
      </trkpt>
      <trkpt lat="50.22233" lon="2.38594">
        <ele>143.85</ele>
        <time>2022-01-16T08:45:47Z</time>
      </trkpt>
      <trkpt lat="50.2222" lon="2.38609">
        <ele>144.34</ele>
        <time>2022-01-16T08:45:59Z</time>
      </trkpt>
      <trkpt lat="50.22219" lon="2.38611">
        <ele>144.34</ele>
        <time>2022-01-16T08:46:00Z</time>
      </trkpt>
      <trkpt lat="50.22209" lon="2.38625">
        <ele>142.89</ele>
        <time>2022-01-16T08:46:14Z</time>
      </trkpt>
      <trkpt lat="50.22205" lon="2.38637">
        <ele>141.45</ele>
        <time>2022-01-16T08:46:27Z</time>
      </trkpt>
      <trkpt lat="50.22199" lon="2.3865">
        <ele>140.49</ele>
        <time>2022-01-16T08:46:40Z</time>
      </trkpt>
      <trkpt lat="50.22191" lon="2.38665">
        <ele>140.97</ele>
        <time>2022-01-16T08:46:54Z</time>
      </trkpt>
      <trkpt lat="50.22188" lon="2.38679">
        <ele>139.53</ele>
        <time>2022-01-16T08:47:04Z</time>
      </trkpt>
      <trkpt lat="50.22182" lon="2.38699">
        <ele>136.16</ele>
        <time>2022-01-16T08:47:18Z</time>
      </trkpt>
      <trkpt lat="50.22175" lon="2.38706">
        <ele>136.64</ele>
        <time>2022-01-16T08:47:30Z</time>
      </trkpt>
      <trkpt lat="50.22172" lon="2.38715">
        <ele>136.64</ele>
        <time>2022-01-16T08:47:45Z</time>
      </trkpt>
      <trkpt lat="50.22172" lon="2.38719">
        <ele>136.16</ele>
        <time>2022-01-16T08:47:48Z</time>
      </trkpt>
      <trkpt lat="50.22168" lon="2.38742">
        <ele>133.76</ele>
        <time>2022-01-16T08:48:00Z</time>
      </trkpt>
      <trkpt lat="50.2216" lon="2.38762">
        <ele>130.88</ele>
        <time>2022-01-16T08:48:11Z</time>
      </trkpt>
      <trkpt lat="50.22151" lon="2.3878">
        <ele>128.95</ele>
        <time>2022-01-16T08:48:25Z</time>
      </trkpt>
      <trkpt lat="50.22142" lon="2.38799">
        <ele>128.47</ele>
        <time>2022-01-16T08:48:36Z</time>
      </trkpt>
      <trkpt lat="50.22133" lon="2.38817">
        <ele>129.43</ele>
        <time>2022-01-16T08:48:47Z</time>
      </trkpt>
      <trkpt lat="50.22126" lon="2.38827">
        <ele>131.36</ele>
        <time>2022-01-16T08:48:58Z</time>
      </trkpt>
      <trkpt lat="50.2212" lon="2.38839">
        <ele>131.36</ele>
        <time>2022-01-16T08:49:08Z</time>
      </trkpt>
      <trkpt lat="50.22108" lon="2.38856">
        <ele>131.84</ele>
        <time>2022-01-16T08:49:22Z</time>
      </trkpt>
      <trkpt lat="50.22097" lon="2.38874">
        <ele>128.95</ele>
        <time>2022-01-16T08:49:33Z</time>
      </trkpt>
      <trkpt lat="50.22088" lon="2.38888">
        <ele>129.43</ele>
        <time>2022-01-16T08:49:45Z</time>
      </trkpt>
      <trkpt lat="50.22079" lon="2.38895">
        <ele>131.84</ele>
        <time>2022-01-16T08:49:56Z</time>
      </trkpt>
      <trkpt lat="50.22066" lon="2.38896">
        <ele>134.24</ele>
        <time>2022-01-16T08:50:06Z</time>
      </trkpt>
      <trkpt lat="50.22063" lon="2.38905">
        <ele>132.8</ele>
        <time>2022-01-16T08:50:17Z</time>
      </trkpt>
      <trkpt lat="50.22056" lon="2.38916">
        <ele>130.88</ele>
        <time>2022-01-16T08:50:28Z</time>
      </trkpt>
      <trkpt lat="50.22051" lon="2.3893">
        <ele>127.99</ele>
        <time>2022-01-16T08:50:39Z</time>
      </trkpt>
      <trkpt lat="50.22045" lon="2.3894">
        <ele>127.99</ele>
        <time>2022-01-16T08:50:53Z</time>
      </trkpt>
      <trkpt lat="50.22039" lon="2.38947">
        <ele>128.47</ele>
        <time>2022-01-16T08:51:03Z</time>
      </trkpt>
      <trkpt lat="50.22035" lon="2.38953">
        <ele>128.95</ele>
        <time>2022-01-16T08:51:18Z</time>
      </trkpt>
      <trkpt lat="50.2203" lon="2.38956">
        <ele>132.8</ele>
        <time>2022-01-16T08:51:37Z</time>
      </trkpt>
      <trkpt lat="50.22028" lon="2.38958">
        <ele>132.8</ele>
        <time>2022-01-16T08:51:50Z</time>
      </trkpt>
      <trkpt lat="50.22028" lon="2.3896">
        <ele>134.24</ele>
        <time>2022-01-16T08:52:13Z</time>
      </trkpt>
      <trkpt lat="50.22028" lon="2.3896">
        <ele>134.72</ele>
        <time>2022-01-16T08:52:32Z</time>
      </trkpt>
      <trkpt lat="50.22027" lon="2.38961">
        <ele>137.13</ele>
        <time>2022-01-16T08:52:54Z</time>
      </trkpt>
      <trkpt lat="50.22028" lon="2.38962">
        <ele>136.64</ele>
        <time>2022-01-16T08:53:10Z</time>
      </trkpt>
      <trkpt lat="50.22028" lon="2.38964">
        <ele>136.16</ele>
        <time>2022-01-16T08:53:33Z</time>
      </trkpt>
      <trkpt lat="50.22027" lon="2.38966">
        <ele>135.68</ele>
        <time>2022-01-16T08:53:50Z</time>
      </trkpt>
      <trkpt lat="50.22027" lon="2.38968">
        <ele>134.72</ele>
        <time>2022-01-16T08:54:01Z</time>
      </trkpt>
      <trkpt lat="50.22024" lon="2.38974">
        <ele>134.24</ele>
        <time>2022-01-16T08:54:15Z</time>
      </trkpt>
      <trkpt lat="50.22014" lon="2.38983">
        <ele>132.8</ele>
        <time>2022-01-16T08:54:26Z</time>
      </trkpt>
      <trkpt lat="50.22001" lon="2.39002">
        <ele>132.8</ele>
        <time>2022-01-16T08:54:39Z</time>
      </trkpt>
      <trkpt lat="50.21992" lon="2.39025">
        <ele>131.36</ele>
        <time>2022-01-16T08:54:52Z</time>
      </trkpt>
      <trkpt lat="50.21984" lon="2.39044">
        <ele>129.43</ele>
        <time>2022-01-16T08:55:05Z</time>
      </trkpt>
      <trkpt lat="50.21978" lon="2.3906">
        <ele>129.92</ele>
        <time>2022-01-16T08:55:18Z</time>
      </trkpt>
      <trkpt lat="50.21982" lon="2.39085">
        <ele>132.32</ele>
        <time>2022-01-16T08:55:29Z</time>
      </trkpt>
      <trkpt lat="50.21986" lon="2.39101">
        <ele>131.84</ele>
        <time>2022-01-16T08:55:43Z</time>
      </trkpt>
      <trkpt lat="50.21991" lon="2.39117">
        <ele>133.28</ele>
        <time>2022-01-16T08:55:57Z</time>
      </trkpt>
      <trkpt lat="50.21993" lon="2.39124">
        <ele>133.28</ele>
        <time>2022-01-16T08:56:13Z</time>
      </trkpt>
      <trkpt lat="50.22001" lon="2.3914">
        <ele>133.28</ele>
        <time>2022-01-16T08:56:25Z</time>
      </trkpt>
      <trkpt lat="50.22006" lon="2.39164">
        <ele>132.8</ele>
        <time>2022-01-16T08:56:37Z</time>
      </trkpt>
      <trkpt lat="50.22013" lon="2.3919">
        <ele>130.4</ele>
        <time>2022-01-16T08:56:51Z</time>
      </trkpt>
      <trkpt lat="50.22018" lon="2.39214">
        <ele>127.99</ele>
        <time>2022-01-16T08:57:03Z</time>
      </trkpt>
      <trkpt lat="50.22021" lon="2.39246">
        <ele>130.88</ele>
        <time>2022-01-16T08:57:17Z</time>
      </trkpt>
      <trkpt lat="50.22022" lon="2.39269">
        <ele>127.51</ele>
        <time>2022-01-16T08:57:30Z</time>
      </trkpt>
      <trkpt lat="50.22024" lon="2.39299">
        <ele>129.43</ele>
        <time>2022-01-16T08:57:45Z</time>
      </trkpt>
      <trkpt lat="50.22025" lon="2.3931">
        <ele>126.55</ele>
        <time>2022-01-16T08:57:59Z</time>
      </trkpt>
      <trkpt lat="50.22027" lon="2.39322">
        <ele>125.59</ele>
        <time>2022-01-16T08:58:10Z</time>
      </trkpt>
      <trkpt lat="50.22028" lon="2.39336">
        <ele>122.22</ele>
        <time>2022-01-16T08:58:22Z</time>
      </trkpt>
      <trkpt lat="50.22032" lon="2.39364">
        <ele>119.34</ele>
        <time>2022-01-16T08:58:36Z</time>
      </trkpt>
      <trkpt lat="50.22033" lon="2.39387">
        <ele>117.9</ele>
        <time>2022-01-16T08:58:47Z</time>
      </trkpt>
      <trkpt lat="50.22034" lon="2.39392">
        <ele>118.38</ele>
        <time>2022-01-16T08:58:50Z</time>
      </trkpt>
      <trkpt lat="50.22033" lon="2.39405">
        <ele>117.42</ele>
        <time>2022-01-16T08:59:01Z</time>
      </trkpt>
      <trkpt lat="50.22033" lon="2.39409">
        <ele>117.9</ele>
        <time>2022-01-16T08:59:07Z</time>
      </trkpt>
      <trkpt lat="50.22028" lon="2.39423">
        <ele>116.46</ele>
        <time>2022-01-16T08:59:20Z</time>
      </trkpt>
      <trkpt lat="50.22021" lon="2.39439">
        <ele>114.05</ele>
        <time>2022-01-16T08:59:33Z</time>
      </trkpt>
      <trkpt lat="50.2201" lon="2.39457">
        <ele>114.05</ele>
        <time>2022-01-16T08:59:47Z</time>
      </trkpt>
      <trkpt lat="50.22003" lon="2.39473">
        <ele>113.09</ele>
        <time>2022-01-16T08:59:59Z</time>
      </trkpt>
      <trkpt lat="50.21999" lon="2.39485">
        <ele>112.13</ele>
        <time>2022-01-16T09:00:09Z</time>
      </trkpt>
      <trkpt lat="50.21999" lon="2.39485">
        <ele>112.61</ele>
        <time>2022-01-16T09:00:25Z</time>
      </trkpt>
      <trkpt lat="50.21998" lon="2.39486">
        <ele>111.65</ele>
        <time>2022-01-16T09:00:42Z</time>
      </trkpt>
      <trkpt lat="50.21998" lon="2.39486">
        <ele>111.17</ele>
        <time>2022-01-16T09:01:02Z</time>
      </trkpt>
      <trkpt lat="50.21998" lon="2.39488">
        <ele>112.61</ele>
        <time>2022-01-16T09:01:22Z</time>
      </trkpt>
      <trkpt lat="50.21998" lon="2.39489">
        <ele>113.09</ele>
        <time>2022-01-16T09:01:44Z</time>
      </trkpt>
      <trkpt lat="50.21998" lon="2.39489">
        <ele>114.05</ele>
        <time>2022-01-16T09:02:04Z</time>
      </trkpt>
      <trkpt lat="50.21998" lon="2.3949">
        <ele>113.09</ele>
        <time>2022-01-16T09:02:25Z</time>
      </trkpt>
      <trkpt lat="50.21998" lon="2.3949">
        <ele>113.09</ele>
        <time>2022-01-16T09:02:38Z</time>
      </trkpt>
      <trkpt lat="50.21995" lon="2.39502">
        <ele>111.17</ele>
        <time>2022-01-16T09:02:50Z</time>
      </trkpt>
      <trkpt lat="50.21991" lon="2.3952">
        <ele>107.81</ele>
        <time>2022-01-16T09:03:02Z</time>
      </trkpt>
      <trkpt lat="50.21989" lon="2.39539">
        <ele>103.96</ele>
        <time>2022-01-16T09:03:13Z</time>
      </trkpt>
      <trkpt lat="50.21989" lon="2.39565">
        <ele>100.6</ele>
        <time>2022-01-16T09:03:26Z</time>
      </trkpt>
      <trkpt lat="50.21994" lon="2.39584">
        <ele>95.79</ele>
        <time>2022-01-16T09:03:40Z</time>
      </trkpt>
      <trkpt lat="50.21994" lon="2.39595">
        <ele>96.27</ele>
        <time>2022-01-16T09:03:50Z</time>
      </trkpt>
      <trkpt lat="50.21999" lon="2.39617">
        <ele>93.39</ele>
        <time>2022-01-16T09:04:03Z</time>
      </trkpt>
      <trkpt lat="50.22" lon="2.39633">
        <ele>91.94</ele>
        <time>2022-01-16T09:04:15Z</time>
      </trkpt>
      <trkpt lat="50.22001" lon="2.39648">
        <ele>95.31</ele>
        <time>2022-01-16T09:04:25Z</time>
      </trkpt>
      <trkpt lat="50.21995" lon="2.39666">
        <ele>92.42</ele>
        <time>2022-01-16T09:04:35Z</time>
      </trkpt>
      <trkpt lat="50.21989" lon="2.39677">
        <ele>90.02</ele>
        <time>2022-01-16T09:04:45Z</time>
      </trkpt>
      <trkpt lat="50.21988" lon="2.39684">
        <ele>93.39</ele>
        <time>2022-01-16T09:04:55Z</time>
      </trkpt>
      <trkpt lat="50.21988" lon="2.39692">
        <ele>100.11</ele>
        <time>2022-01-16T09:05:15Z</time>
      </trkpt>
      <trkpt lat="50.21988" lon="2.39693">
        <ele>102.04</ele>
        <time>2022-01-16T09:05:33Z</time>
      </trkpt>
      <trkpt lat="50.21988" lon="2.39692">
        <ele>102.04</ele>
        <time>2022-01-16T09:05:47Z</time>
      </trkpt>
      <trkpt lat="50.21987" lon="2.39692">
        <ele>102.04</ele>
        <time>2022-01-16T09:06:02Z</time>
      </trkpt>
      <trkpt lat="50.21988" lon="2.39695">
        <ele>105.4</ele>
        <time>2022-01-16T09:06:20Z</time>
      </trkpt>
      <trkpt lat="50.21988" lon="2.39696">
        <ele>104.44</ele>
        <time>2022-01-16T09:06:44Z</time>
      </trkpt>
      <trkpt lat="50.21988" lon="2.39697">
        <ele>106.36</ele>
        <time>2022-01-16T09:07:03Z</time>
      </trkpt>
      <trkpt lat="50.21989" lon="2.39697">
        <ele>107.32</ele>
        <time>2022-01-16T09:07:24Z</time>
      </trkpt>
      <trkpt lat="50.2199" lon="2.39697">
        <ele>107.32</ele>
        <time>2022-01-16T09:07:34Z</time>
      </trkpt>
      <trkpt lat="50.21997" lon="2.39694">
        <ele>106.84</ele>
        <time>2022-01-16T09:07:42Z</time>
      </trkpt>
      <trkpt lat="50.2201" lon="2.39685">
        <ele>106.36</ele>
        <time>2022-01-16T09:07:55Z</time>
      </trkpt>
      <trkpt lat="50.22029" lon="2.39676">
        <ele>105.88</ele>
        <time>2022-01-16T09:08:08Z</time>
      </trkpt>
      <trkpt lat="50.2205" lon="2.39665">
        <ele>110.69</ele>
        <time>2022-01-16T09:08:22Z</time>
      </trkpt>
      <trkpt lat="50.22064" lon="2.39659">
        <ele>112.61</ele>
        <time>2022-01-16T09:08:32Z</time>
      </trkpt>
      <trkpt lat="50.22086" lon="2.39647">
        <ele>115.01</ele>
        <time>2022-01-16T09:08:46Z</time>
      </trkpt>
      <trkpt lat="50.22101" lon="2.39642">
        <ele>114.05</ele>
        <time>2022-01-16T09:09:00Z</time>
      </trkpt>
      <trkpt lat="50.22121" lon="2.39631">
        <ele>110.69</ele>
        <time>2022-01-16T09:09:14Z</time>
      </trkpt>
      <trkpt lat="50.22138" lon="2.39622">
        <ele>107.81</ele>
        <time>2022-01-16T09:09:29Z</time>
      </trkpt>
      <trkpt lat="50.22158" lon="2.39609">
        <ele>104.44</ele>
        <time>2022-01-16T09:09:42Z</time>
      </trkpt>
      <trkpt lat="50.22173" lon="2.39601">
        <ele>102.04</ele>
        <time>2022-01-16T09:09:55Z</time>
      </trkpt>
      <trkpt lat="50.22191" lon="2.39591">
        <ele>100.6</ele>
        <time>2022-01-16T09:10:08Z</time>
      </trkpt>
      <trkpt lat="50.22208" lon="2.39584">
        <ele>99.63</ele>
        <time>2022-01-16T09:10:20Z</time>
      </trkpt>
      <trkpt lat="50.22223" lon="2.39578">
        <ele>96.27</ele>
        <time>2022-01-16T09:10:32Z</time>
      </trkpt>
      <trkpt lat="50.22241" lon="2.3957">
        <ele>92.42</ele>
        <time>2022-01-16T09:10:46Z</time>
      </trkpt>
      <trkpt lat="50.22263" lon="2.39567">
        <ele>90.02</ele>
        <time>2022-01-16T09:10:59Z</time>
      </trkpt>
      <trkpt lat="50.22281" lon="2.39567">
        <ele>88.58</ele>
        <time>2022-01-16T09:11:11Z</time>
      </trkpt>
      <trkpt lat="50.22296" lon="2.39565">
        <ele>101.56</ele>
        <time>2022-01-16T09:11:21Z</time>
      </trkpt>
      <trkpt lat="50.2231" lon="2.39568">
        <ele>103</ele>
        <time>2022-01-16T09:11:33Z</time>
      </trkpt>
      <trkpt lat="50.22328" lon="2.39573">
        <ele>106.84</ele>
        <time>2022-01-16T09:11:46Z</time>
      </trkpt>
      <trkpt lat="50.22341" lon="2.39577">
        <ele>108.29</ele>
        <time>2022-01-16T09:11:56Z</time>
      </trkpt>
      <trkpt lat="50.22359" lon="2.39578">
        <ele>109.25</ele>
        <time>2022-01-16T09:12:09Z</time>
      </trkpt>
      <trkpt lat="50.22372" lon="2.39581">
        <ele>106.84</ele>
        <time>2022-01-16T09:12:21Z</time>
      </trkpt>
      <trkpt lat="50.22386" lon="2.39585">
        <ele>106.36</ele>
        <time>2022-01-16T09:12:33Z</time>
      </trkpt>
      <trkpt lat="50.22406" lon="2.39585">
        <ele>113.09</ele>
        <time>2022-01-16T09:12:44Z</time>
      </trkpt>
      <trkpt lat="50.22419" lon="2.39589">
        <ele>113.57</ele>
        <time>2022-01-16T09:12:56Z</time>
      </trkpt>
      <trkpt lat="50.2243" lon="2.39591">
        <ele>113.09</ele>
        <time>2022-01-16T09:13:08Z</time>
      </trkpt>
      <trkpt lat="50.22454" lon="2.39592">
        <ele>118.38</ele>
        <time>2022-01-16T09:13:22Z</time>
      </trkpt>
      <trkpt lat="50.22468" lon="2.39595">
        <ele>118.38</ele>
        <time>2022-01-16T09:13:35Z</time>
      </trkpt>
      <trkpt lat="50.22483" lon="2.39596">
        <ele>119.34</ele>
        <time>2022-01-16T09:13:46Z</time>
      </trkpt>
      <trkpt lat="50.22493" lon="2.396">
        <ele>119.82</ele>
        <time>2022-01-16T09:13:56Z</time>
      </trkpt>
      <trkpt lat="50.22509" lon="2.39602">
        <ele>121.26</ele>
        <time>2022-01-16T09:14:08Z</time>
      </trkpt>
      <trkpt lat="50.2253" lon="2.39605">
        <ele>119.82</ele>
        <time>2022-01-16T09:14:23Z</time>
      </trkpt>
      <trkpt lat="50.22547" lon="2.39608">
        <ele>119.34</ele>
        <time>2022-01-16T09:14:36Z</time>
      </trkpt>
      <trkpt lat="50.22566" lon="2.39611">
        <ele>123.19</ele>
        <time>2022-01-16T09:14:48Z</time>
      </trkpt>
      <trkpt lat="50.22584" lon="2.39613">
        <ele>123.67</ele>
        <time>2022-01-16T09:15:00Z</time>
      </trkpt>
      <trkpt lat="50.22599" lon="2.39613">
        <ele>122.71</ele>
        <time>2022-01-16T09:15:11Z</time>
      </trkpt>
      <trkpt lat="50.22612" lon="2.39617">
        <ele>121.74</ele>
        <time>2022-01-16T09:15:23Z</time>
      </trkpt>
      <trkpt lat="50.22626" lon="2.39618">
        <ele>122.22</ele>
        <time>2022-01-16T09:15:36Z</time>
      </trkpt>
      <trkpt lat="50.22644" lon="2.39623">
        <ele>122.71</ele>
        <time>2022-01-16T09:15:51Z</time>
      </trkpt>
      <trkpt lat="50.22667" lon="2.39625">
        <ele>123.19</ele>
        <time>2022-01-16T09:16:07Z</time>
      </trkpt>
      <trkpt lat="50.22685" lon="2.39629">
        <ele>126.55</ele>
        <time>2022-01-16T09:16:21Z</time>
      </trkpt>
      <trkpt lat="50.22703" lon="2.39631">
        <ele>129.43</ele>
        <time>2022-01-16T09:16:34Z</time>
      </trkpt>
      <trkpt lat="50.22718" lon="2.39635">
        <ele>129.92</ele>
        <time>2022-01-16T09:16:46Z</time>
      </trkpt>
      <trkpt lat="50.22734" lon="2.39636">
        <ele>132.32</ele>
        <time>2022-01-16T09:16:59Z</time>
      </trkpt>
      <trkpt lat="50.2275" lon="2.39636">
        <ele>133.28</ele>
        <time>2022-01-16T09:17:11Z</time>
      </trkpt>
      <trkpt lat="50.22766" lon="2.39641">
        <ele>135.2</ele>
        <time>2022-01-16T09:17:24Z</time>
      </trkpt>
      <trkpt lat="50.2278" lon="2.39644">
        <ele>135.2</ele>
        <time>2022-01-16T09:17:35Z</time>
      </trkpt>
      <trkpt lat="50.22798" lon="2.39647">
        <ele>134.72</ele>
        <time>2022-01-16T09:17:49Z</time>
      </trkpt>
      <trkpt lat="50.22813" lon="2.39647">
        <ele>133.76</ele>
        <time>2022-01-16T09:18:00Z</time>
      </trkpt>
      <trkpt lat="50.22834" lon="2.39645">
        <ele>132.32</ele>
        <time>2022-01-16T09:18:14Z</time>
      </trkpt>
      <trkpt lat="50.22852" lon="2.39643">
        <ele>133.28</ele>
        <time>2022-01-16T09:18:27Z</time>
      </trkpt>
      <trkpt lat="50.22875" lon="2.3964">
        <ele>132.8</ele>
        <time>2022-01-16T09:18:43Z</time>
      </trkpt>
      <trkpt lat="50.22895" lon="2.39638">
        <ele>133.28</ele>
        <time>2022-01-16T09:18:57Z</time>
      </trkpt>
      <trkpt lat="50.22918" lon="2.39632">
        <ele>134.72</ele>
        <time>2022-01-16T09:19:13Z</time>
      </trkpt>
      <trkpt lat="50.22939" lon="2.39628">
        <ele>135.68</ele>
        <time>2022-01-16T09:19:29Z</time>
      </trkpt>
      <trkpt lat="50.2296" lon="2.39626">
        <ele>137.13</ele>
        <time>2022-01-16T09:19:44Z</time>
      </trkpt>
      <trkpt lat="50.22978" lon="2.39624">
        <ele>138.57</ele>
        <time>2022-01-16T09:19:57Z</time>
      </trkpt>
      <trkpt lat="50.22995" lon="2.39623">
        <ele>139.05</ele>
        <time>2022-01-16T09:20:09Z</time>
      </trkpt>
      <trkpt lat="50.23014" lon="2.39621">
        <ele>140.49</ele>
        <time>2022-01-16T09:20:23Z</time>
      </trkpt>
      <trkpt lat="50.2303" lon="2.3962">
        <ele>140.97</ele>
        <time>2022-01-16T09:20:35Z</time>
      </trkpt>
      <trkpt lat="50.23052" lon="2.39618">
        <ele>141.45</ele>
        <time>2022-01-16T09:20:51Z</time>
      </trkpt>
      <trkpt lat="50.2307" lon="2.39616">
        <ele>141.93</ele>
        <time>2022-01-16T09:21:04Z</time>
      </trkpt>
      <trkpt lat="50.23086" lon="2.39615">
        <ele>142.89</ele>
        <time>2022-01-16T09:21:16Z</time>
      </trkpt>
      <trkpt lat="50.23102" lon="2.39615">
        <ele>143.85</ele>
        <time>2022-01-16T09:21:28Z</time>
      </trkpt>
      <trkpt lat="50.23119" lon="2.39614">
        <ele>144.34</ele>
        <time>2022-01-16T09:21:41Z</time>
      </trkpt>
      <trkpt lat="50.23138" lon="2.39611">
        <ele>143.85</ele>
        <time>2022-01-16T09:21:55Z</time>
      </trkpt>
      <trkpt lat="50.23154" lon="2.39609">
        <ele>143.85</ele>
        <time>2022-01-16T09:22:07Z</time>
      </trkpt>
      <trkpt lat="50.23173" lon="2.39609">
        <ele>143.37</ele>
        <time>2022-01-16T09:22:21Z</time>
      </trkpt>
      <trkpt lat="50.23191" lon="2.39608">
        <ele>142.41</ele>
        <time>2022-01-16T09:22:35Z</time>
      </trkpt>
      <trkpt lat="50.2321" lon="2.39608">
        <ele>141.45</ele>
        <time>2022-01-16T09:22:50Z</time>
      </trkpt>
      <trkpt lat="50.23228" lon="2.39605">
        <ele>140.49</ele>
        <time>2022-01-16T09:23:05Z</time>
      </trkpt>
      <trkpt lat="50.23245" lon="2.39605">
        <ele>140.49</ele>
        <time>2022-01-16T09:23:18Z</time>
      </trkpt>
      <trkpt lat="50.23264" lon="2.39604">
        <ele>140.01</ele>
        <time>2022-01-16T09:23:33Z</time>
      </trkpt>
      <trkpt lat="50.23278" lon="2.39603">
        <ele>140.01</ele>
        <time>2022-01-16T09:23:45Z</time>
      </trkpt>
      <trkpt lat="50.23295" lon="2.39603">
        <ele>140.01</ele>
        <time>2022-01-16T09:23:58Z</time>
      </trkpt>
      <trkpt lat="50.23314" lon="2.396">
        <ele>140.49</ele>
        <time>2022-01-16T09:24:12Z</time>
      </trkpt>
      <trkpt lat="50.23331" lon="2.39592">
        <ele>140.97</ele>
        <time>2022-01-16T09:24:25Z</time>
      </trkpt>
      <trkpt lat="50.23349" lon="2.39579">
        <ele>141.45</ele>
        <time>2022-01-16T09:24:40Z</time>
      </trkpt>
      <trkpt lat="50.23364" lon="2.39567">
        <ele>141.93</ele>
        <time>2022-01-16T09:24:53Z</time>
      </trkpt>
      <trkpt lat="50.23381" lon="2.39555">
        <ele>142.89</ele>
        <time>2022-01-16T09:25:07Z</time>
      </trkpt>
      <trkpt lat="50.23399" lon="2.39541">
        <ele>142.41</ele>
        <time>2022-01-16T09:25:22Z</time>
      </trkpt>
      <trkpt lat="50.23413" lon="2.39531">
        <ele>142.89</ele>
        <time>2022-01-16T09:25:35Z</time>
      </trkpt>
      <trkpt lat="50.23419" lon="2.39528">
        <ele>142.41</ele>
        <time>2022-01-16T09:25:46Z</time>
      </trkpt>
      <trkpt lat="50.2342" lon="2.39527">
        <ele>142.41</ele>
        <time>2022-01-16T09:26:00Z</time>
      </trkpt>
      <trkpt lat="50.23419" lon="2.39527">
        <ele>143.37</ele>
        <time>2022-01-16T09:26:13Z</time>
      </trkpt>
      <trkpt lat="50.23419" lon="2.39527">
        <ele>143.85</ele>
        <time>2022-01-16T09:26:21Z</time>
      </trkpt>
      <trkpt lat="50.23417" lon="2.39527">
        <ele>147.22</ele>
        <time>2022-01-16T09:28:00Z</time>
      </trkpt>
      <trkpt lat="50.23418" lon="2.39524">
        <ele>140.97</ele>
        <time>2022-01-16T09:28:19Z</time>
      </trkpt>
      <trkpt lat="50.2342" lon="2.39524">
        <ele>140.01</ele>
        <time>2022-01-16T09:28:33Z</time>
      </trkpt>
      <trkpt lat="50.2342" lon="2.39526">
        <ele>138.09</ele>
        <time>2022-01-16T09:28:44Z</time>
      </trkpt>
      <trkpt lat="50.23421" lon="2.39524">
        <ele>138.09</ele>
        <time>2022-01-16T09:28:47Z</time>
      </trkpt>
      <trkpt lat="50.23431" lon="2.39518">
        <ele>138.09</ele>
        <time>2022-01-16T09:29:00Z</time>
      </trkpt>
      <trkpt lat="50.23434" lon="2.39523">
        <ele>139.53</ele>
        <time>2022-01-16T09:29:14Z</time>
      </trkpt>
      <trkpt lat="50.23435" lon="2.39519">
        <ele>137.13</ele>
        <time>2022-01-16T09:29:34Z</time>
      </trkpt>
      <trkpt lat="50.23432" lon="2.39516">
        <ele>134.24</ele>
        <time>2022-01-16T09:29:55Z</time>
      </trkpt>
      <trkpt lat="50.23432" lon="2.39515">
        <ele>134.24</ele>
        <time>2022-01-16T09:30:17Z</time>
      </trkpt>
      <trkpt lat="50.23446" lon="2.39503">
        <ele>134.72</ele>
        <time>2022-01-16T09:30:31Z</time>
      </trkpt>
      <trkpt lat="50.23458" lon="2.39492">
        <ele>135.2</ele>
        <time>2022-01-16T09:30:42Z</time>
      </trkpt>
      <trkpt lat="50.23476" lon="2.39478">
        <ele>136.16</ele>
        <time>2022-01-16T09:30:56Z</time>
      </trkpt>
      <trkpt lat="50.23495" lon="2.39467">
        <ele>135.68</ele>
        <time>2022-01-16T09:31:07Z</time>
      </trkpt>
      <trkpt lat="50.23512" lon="2.39453">
        <ele>136.16</ele>
        <time>2022-01-16T09:31:22Z</time>
      </trkpt>
      <trkpt lat="50.23525" lon="2.3944">
        <ele>136.64</ele>
        <time>2022-01-16T09:31:34Z</time>
      </trkpt>
      <trkpt lat="50.23543" lon="2.39428">
        <ele>137.13</ele>
        <time>2022-01-16T09:31:49Z</time>
      </trkpt>
      <trkpt lat="50.23558" lon="2.39425">
        <ele>137.61</ele>
        <time>2022-01-16T09:32:00Z</time>
      </trkpt>
      <trkpt lat="50.23575" lon="2.39427">
        <ele>138.57</ele>
        <time>2022-01-16T09:32:14Z</time>
      </trkpt>
      <trkpt lat="50.23589" lon="2.39415">
        <ele>140.01</ele>
        <time>2022-01-16T09:32:26Z</time>
      </trkpt>
      <trkpt lat="50.23595" lon="2.39393">
        <ele>142.41</ele>
        <time>2022-01-16T09:32:38Z</time>
      </trkpt>
      <trkpt lat="50.23601" lon="2.39356">
        <ele>142.41</ele>
        <time>2022-01-16T09:32:55Z</time>
      </trkpt>
      <trkpt lat="50.23608" lon="2.39316">
        <ele>142.41</ele>
        <time>2022-01-16T09:33:13Z</time>
      </trkpt>
      <trkpt lat="50.23613" lon="2.39283">
        <ele>141.93</ele>
        <time>2022-01-16T09:33:28Z</time>
      </trkpt>
      <trkpt lat="50.23624" lon="2.39244">
        <ele>140.97</ele>
        <time>2022-01-16T09:33:47Z</time>
      </trkpt>
      <trkpt lat="50.23637" lon="2.39217">
        <ele>142.89</ele>
        <time>2022-01-16T09:34:02Z</time>
      </trkpt>
      <trkpt lat="50.23649" lon="2.39191">
        <ele>144.34</ele>
        <time>2022-01-16T09:34:16Z</time>
      </trkpt>
      <trkpt lat="50.23666" lon="2.3916">
        <ele>145.3</ele>
        <time>2022-01-16T09:34:34Z</time>
      </trkpt>
      <trkpt lat="50.23684" lon="2.39143">
        <ele>145.3</ele>
        <time>2022-01-16T09:34:48Z</time>
      </trkpt>
      <trkpt lat="50.23702" lon="2.39122">
        <ele>145.78</ele>
        <time>2022-01-16T09:35:03Z</time>
      </trkpt>
      <trkpt lat="50.23714" lon="2.39091">
        <ele>145.78</ele>
        <time>2022-01-16T09:35:19Z</time>
      </trkpt>
      <trkpt lat="50.23721" lon="2.39057">
        <ele>144.82</ele>
        <time>2022-01-16T09:35:35Z</time>
      </trkpt>
      <trkpt lat="50.23726" lon="2.39034">
        <ele>144.34</ele>
        <time>2022-01-16T09:35:47Z</time>
      </trkpt>
      <trkpt lat="50.23731" lon="2.39003">
        <ele>144.34</ele>
        <time>2022-01-16T09:36:03Z</time>
      </trkpt>
      <trkpt lat="50.23731" lon="2.38999">
        <ele>144.34</ele>
        <time>2022-01-16T09:36:15Z</time>
      </trkpt>
      <trkpt lat="50.23734" lon="2.38987">
        <ele>143.85</ele>
        <time>2022-01-16T09:36:25Z</time>
      </trkpt>
      <trkpt lat="50.23738" lon="2.38971">
        <ele>141.93</ele>
        <time>2022-01-16T09:36:36Z</time>
      </trkpt>
      <trkpt lat="50.23746" lon="2.38944">
        <ele>142.41</ele>
        <time>2022-01-16T09:36:50Z</time>
      </trkpt>
      <trkpt lat="50.23751" lon="2.38922">
        <ele>139.53</ele>
        <time>2022-01-16T09:37:03Z</time>
      </trkpt>
      <trkpt lat="50.23755" lon="2.38901">
        <ele>136.16</ele>
        <time>2022-01-16T09:37:16Z</time>
      </trkpt>
      <trkpt lat="50.23758" lon="2.38883">
        <ele>134.72</ele>
        <time>2022-01-16T09:37:27Z</time>
      </trkpt>
      <trkpt lat="50.23767" lon="2.38854">
        <ele>136.64</ele>
        <time>2022-01-16T09:37:42Z</time>
      </trkpt>
      <trkpt lat="50.23783" lon="2.38833">
        <ele>140.49</ele>
        <time>2022-01-16T09:37:58Z</time>
      </trkpt>
      <trkpt lat="50.23794" lon="2.38818">
        <ele>141.93</ele>
        <time>2022-01-16T09:38:09Z</time>
      </trkpt>
      <trkpt lat="50.238" lon="2.38811">
        <ele>142.41</ele>
        <time>2022-01-16T09:38:15Z</time>
      </trkpt>
      <trkpt lat="50.23803" lon="2.38808">
        <ele>142.41</ele>
        <time>2022-01-16T09:38:18Z</time>
      </trkpt>
      <trkpt lat="50.23814" lon="2.38791">
        <ele>141.93</ele>
        <time>2022-01-16T09:38:31Z</time>
      </trkpt>
      <trkpt lat="50.23826" lon="2.38776">
        <ele>141.93</ele>
        <time>2022-01-16T09:38:45Z</time>
      </trkpt>
      <trkpt lat="50.23837" lon="2.38764">
        <ele>141.45</ele>
        <time>2022-01-16T09:38:57Z</time>
      </trkpt>
      <trkpt lat="50.2384" lon="2.38762">
        <ele>141.45</ele>
        <time>2022-01-16T09:39:00Z</time>
      </trkpt>
      <trkpt lat="50.23842" lon="2.38758">
        <ele>141.45</ele>
        <time>2022-01-16T09:39:03Z</time>
      </trkpt>
      <trkpt lat="50.23848" lon="2.38751">
        <ele>140.49</ele>
        <time>2022-01-16T09:39:14Z</time>
      </trkpt>
      <trkpt lat="50.23859" lon="2.38739">
        <ele>140.01</ele>
        <time>2022-01-16T09:39:26Z</time>
      </trkpt>
      <trkpt lat="50.23868" lon="2.38724">
        <ele>140.49</ele>
        <time>2022-01-16T09:39:38Z</time>
      </trkpt>
      <trkpt lat="50.23868" lon="2.38716">
        <ele>143.37</ele>
        <time>2022-01-16T09:39:51Z</time>
      </trkpt>
      <trkpt lat="50.23872" lon="2.38724">
        <ele>143.85</ele>
        <time>2022-01-16T09:40:01Z</time>
      </trkpt>
      <trkpt lat="50.23883" lon="2.38744">
        <ele>146.26</ele>
        <time>2022-01-16T09:40:14Z</time>
      </trkpt>
      <trkpt lat="50.23894" lon="2.3877">
        <ele>146.74</ele>
        <time>2022-01-16T09:40:30Z</time>
      </trkpt>
      <trkpt lat="50.23904" lon="2.38797">
        <ele>145.78</ele>
        <time>2022-01-16T09:40:45Z</time>
      </trkpt>
      <trkpt lat="50.23917" lon="2.38827">
        <ele>145.3</ele>
        <time>2022-01-16T09:41:02Z</time>
      </trkpt>
      <trkpt lat="50.23928" lon="2.38855">
        <ele>145.3</ele>
        <time>2022-01-16T09:41:17Z</time>
      </trkpt>
      <trkpt lat="50.23943" lon="2.38889">
        <ele>144.34</ele>
        <time>2022-01-16T09:41:36Z</time>
      </trkpt>
      <trkpt lat="50.23957" lon="2.38919">
        <ele>142.41</ele>
        <time>2022-01-16T09:41:53Z</time>
      </trkpt>
      <trkpt lat="50.23975" lon="2.38953">
        <ele>141.93</ele>
        <time>2022-01-16T09:42:13Z</time>
      </trkpt>
      <trkpt lat="50.23988" lon="2.38983">
        <ele>142.41</ele>
        <time>2022-01-16T09:42:30Z</time>
      </trkpt>
      <trkpt lat="50.23998" lon="2.39013">
        <ele>141.93</ele>
        <time>2022-01-16T09:42:46Z</time>
      </trkpt>
      <trkpt lat="50.24008" lon="2.39038">
        <ele>141.45</ele>
        <time>2022-01-16T09:43:00Z</time>
      </trkpt>
      <trkpt lat="50.24018" lon="2.39064">
        <ele>139.53</ele>
        <time>2022-01-16T09:43:15Z</time>
      </trkpt>
      <trkpt lat="50.24025" lon="2.39078">
        <ele>139.05</ele>
        <time>2022-01-16T09:43:29Z</time>
      </trkpt>
      <trkpt lat="50.24026" lon="2.39079">
        <ele>140.01</ele>
        <time>2022-01-16T09:43:47Z</time>
      </trkpt>
      <trkpt lat="50.24025" lon="2.3908">
        <ele>139.53</ele>
        <time>2022-01-16T09:44:08Z</time>
      </trkpt>
      <trkpt lat="50.24025" lon="2.3908">
        <ele>139.05</ele>
        <time>2022-01-16T09:44:23Z</time>
      </trkpt>
      <trkpt lat="50.24027" lon="2.39081">
        <ele>139.05</ele>
        <time>2022-01-16T09:44:35Z</time>
      </trkpt>
      <trkpt lat="50.24028" lon="2.39081">
        <ele>139.05</ele>
        <time>2022-01-16T09:44:41Z</time>
      </trkpt>
      <trkpt lat="50.24042" lon="2.39073">
        <ele>140.01</ele>
        <time>2022-01-16T09:44:53Z</time>
      </trkpt>
      <trkpt lat="50.24058" lon="2.39058">
        <ele>140.97</ele>
        <time>2022-01-16T09:45:08Z</time>
      </trkpt>
      <trkpt lat="50.2407" lon="2.39047">
        <ele>141.45</ele>
        <time>2022-01-16T09:45:20Z</time>
      </trkpt>
      <trkpt lat="50.24084" lon="2.39037">
        <ele>141.45</ele>
        <time>2022-01-16T09:45:32Z</time>
      </trkpt>
      <trkpt lat="50.24088" lon="2.39033">
        <ele>141.45</ele>
        <time>2022-01-16T09:45:36Z</time>
      </trkpt>
      <trkpt lat="50.24107" lon="2.39027">
        <ele>142.89</ele>
        <time>2022-01-16T09:45:50Z</time>
      </trkpt>
      <trkpt lat="50.24128" lon="2.3902">
        <ele>143.37</ele>
        <time>2022-01-16T09:46:05Z</time>
      </trkpt>
      <trkpt lat="50.2414" lon="2.39016">
        <ele>143.85</ele>
        <time>2022-01-16T09:46:15Z</time>
      </trkpt>
      <trkpt lat="50.24144" lon="2.38998">
        <ele>145.3</ele>
        <time>2022-01-16T09:46:27Z</time>
      </trkpt>
      <trkpt lat="50.24142" lon="2.38969">
        <ele>146.26</ele>
        <time>2022-01-16T09:46:42Z</time>
      </trkpt>
      <trkpt lat="50.24141" lon="2.38941">
        <ele>145.78</ele>
        <time>2022-01-16T09:46:58Z</time>
      </trkpt>
      <trkpt lat="50.24137" lon="2.38921">
        <ele>145.78</ele>
        <time>2022-01-16T09:47:12Z</time>
      </trkpt>
      <trkpt lat="50.24135" lon="2.38896">
        <ele>145.78</ele>
        <time>2022-01-16T09:47:25Z</time>
      </trkpt>
      <trkpt lat="50.24134" lon="2.38868">
        <ele>145.78</ele>
        <time>2022-01-16T09:47:40Z</time>
      </trkpt>
      <trkpt lat="50.24137" lon="2.38836">
        <ele>146.26</ele>
        <time>2022-01-16T09:47:55Z</time>
      </trkpt>
      <trkpt lat="50.24139" lon="2.38806">
        <ele>145.3</ele>
        <time>2022-01-16T09:48:09Z</time>
      </trkpt>
      <trkpt lat="50.24142" lon="2.38776">
        <ele>145.3</ele>
        <time>2022-01-16T09:48:23Z</time>
      </trkpt>
      <trkpt lat="50.24149" lon="2.38747">
        <ele>145.3</ele>
        <time>2022-01-16T09:48:37Z</time>
      </trkpt>
      <trkpt lat="50.24163" lon="2.38721">
        <ele>144.34</ele>
        <time>2022-01-16T09:48:52Z</time>
      </trkpt>
      <trkpt lat="50.24175" lon="2.38698">
        <ele>142.89</ele>
        <time>2022-01-16T09:49:06Z</time>
      </trkpt>
      <trkpt lat="50.24187" lon="2.38674">
        <ele>141.45</ele>
        <time>2022-01-16T09:49:20Z</time>
      </trkpt>
      <trkpt lat="50.242" lon="2.38651">
        <ele>141.93</ele>
        <time>2022-01-16T09:49:34Z</time>
      </trkpt>
      <trkpt lat="50.24213" lon="2.38633">
        <ele>140.97</ele>
        <time>2022-01-16T09:49:46Z</time>
      </trkpt>
      <trkpt lat="50.24225" lon="2.38605">
        <ele>141.93</ele>
        <time>2022-01-16T09:50:02Z</time>
      </trkpt>
      <trkpt lat="50.24216" lon="2.38585">
        <ele>143.37</ele>
        <time>2022-01-16T09:50:14Z</time>
      </trkpt>
      <trkpt lat="50.24204" lon="2.3856">
        <ele>144.34</ele>
        <time>2022-01-16T09:50:29Z</time>
      </trkpt>
      <trkpt lat="50.24194" lon="2.38541">
        <ele>145.78</ele>
        <time>2022-01-16T09:50:42Z</time>
      </trkpt>
      <trkpt lat="50.24188" lon="2.38531">
        <ele>146.74</ele>
        <time>2022-01-16T09:50:49Z</time>
      </trkpt>
      <trkpt lat="50.24181" lon="2.38518">
        <ele>148.66</ele>
        <time>2022-01-16T09:50:57Z</time>
      </trkpt>
      <trkpt lat="50.2417" lon="2.38498">
        <ele>149.14</ele>
        <time>2022-01-16T09:51:10Z</time>
      </trkpt>
      <trkpt lat="50.24154" lon="2.38483">
        <ele>148.66</ele>
        <time>2022-01-16T09:51:24Z</time>
      </trkpt>
      <trkpt lat="50.24141" lon="2.3847">
        <ele>148.18</ele>
        <time>2022-01-16T09:51:35Z</time>
      </trkpt>
      <trkpt lat="50.24126" lon="2.38456">
        <ele>147.7</ele>
        <time>2022-01-16T09:51:48Z</time>
      </trkpt>
      <trkpt lat="50.24111" lon="2.38441">
        <ele>146.26</ele>
        <time>2022-01-16T09:52:01Z</time>
      </trkpt>
      <trkpt lat="50.24096" lon="2.38436">
        <ele>144.82</ele>
        <time>2022-01-16T09:52:12Z</time>
      </trkpt>
      <trkpt lat="50.24083" lon="2.38438">
        <ele>144.34</ele>
        <time>2022-01-16T09:52:23Z</time>
      </trkpt>
      <trkpt lat="50.24071" lon="2.38441">
        <ele>144.34</ele>
        <time>2022-01-16T09:52:34Z</time>
      </trkpt>
      <trkpt lat="50.24057" lon="2.38441">
        <ele>144.34</ele>
        <time>2022-01-16T09:52:44Z</time>
      </trkpt>
      <trkpt lat="50.24037" lon="2.38434">
        <ele>144.82</ele>
        <time>2022-01-16T09:52:59Z</time>
      </trkpt>
      <trkpt lat="50.24021" lon="2.38427">
        <ele>146.74</ele>
        <time>2022-01-16T09:53:12Z</time>
      </trkpt>
      <trkpt lat="50.24004" lon="2.38419">
        <ele>147.7</ele>
        <time>2022-01-16T09:53:26Z</time>
      </trkpt>
      <trkpt lat="50.23988" lon="2.38414">
        <ele>148.66</ele>
        <time>2022-01-16T09:53:38Z</time>
      </trkpt>
      <trkpt lat="50.2397" lon="2.38407">
        <ele>148.66</ele>
        <time>2022-01-16T09:53:52Z</time>
      </trkpt>
      <trkpt lat="50.23954" lon="2.384">
        <ele>148.18</ele>
        <time>2022-01-16T09:54:05Z</time>
      </trkpt>
      <trkpt lat="50.23939" lon="2.38393">
        <ele>149.14</ele>
        <time>2022-01-16T09:54:18Z</time>
      </trkpt>
      <trkpt lat="50.23921" lon="2.38387">
        <ele>150.58</ele>
        <time>2022-01-16T09:54:32Z</time>
      </trkpt>
      <trkpt lat="50.23903" lon="2.3838">
        <ele>151.06</ele>
        <time>2022-01-16T09:54:47Z</time>
      </trkpt>
      <trkpt lat="50.23888" lon="2.38374">
        <ele>150.58</ele>
        <time>2022-01-16T09:55:00Z</time>
      </trkpt>
      <trkpt lat="50.23875" lon="2.38372">
        <ele>151.06</ele>
        <time>2022-01-16T09:55:11Z</time>
      </trkpt>
      <trkpt lat="50.23854" lon="2.38369">
        <ele>150.58</ele>
        <time>2022-01-16T09:55:26Z</time>
      </trkpt>
      <trkpt lat="50.23838" lon="2.38369">
        <ele>150.1</ele>
        <time>2022-01-16T09:55:40Z</time>
      </trkpt>
      <trkpt lat="50.23817" lon="2.38372">
        <ele>150.1</ele>
        <time>2022-01-16T09:55:56Z</time>
      </trkpt>
      <trkpt lat="50.23803" lon="2.38373">
        <ele>150.58</ele>
        <time>2022-01-16T09:56:07Z</time>
      </trkpt>
      <trkpt lat="50.23785" lon="2.38375">
        <ele>150.1</ele>
        <time>2022-01-16T09:56:21Z</time>
      </trkpt>
      <trkpt lat="50.23766" lon="2.38377">
        <ele>150.1</ele>
        <time>2022-01-16T09:56:36Z</time>
      </trkpt>
      <trkpt lat="50.23752" lon="2.3838">
        <ele>148.66</ele>
        <time>2022-01-16T09:56:48Z</time>
      </trkpt>
      <trkpt lat="50.23735" lon="2.3839">
        <ele>149.14</ele>
        <time>2022-01-16T09:57:02Z</time>
      </trkpt>
      <trkpt lat="50.23724" lon="2.384">
        <ele>148.18</ele>
        <time>2022-01-16T09:57:14Z</time>
      </trkpt>
      <trkpt lat="50.23722" lon="2.38402">
        <ele>151.54</ele>
        <time>2022-01-16T09:57:28Z</time>
      </trkpt>
      <trkpt lat="50.23723" lon="2.38402">
        <ele>152.51</ele>
        <time>2022-01-16T09:57:49Z</time>
      </trkpt>
      <trkpt lat="50.23723" lon="2.38402">
        <ele>152.51</ele>
        <time>2022-01-16T09:58:02Z</time>
      </trkpt>
      <trkpt lat="50.23723" lon="2.38402">
        <ele>152.03</ele>
        <time>2022-01-16T09:58:24Z</time>
      </trkpt>
      <trkpt lat="50.23723" lon="2.38403">
        <ele>151.54</ele>
        <time>2022-01-16T09:58:48Z</time>
      </trkpt>
      <trkpt lat="50.23724" lon="2.38403">
        <ele>151.06</ele>
        <time>2022-01-16T09:59:13Z</time>
      </trkpt>
      <trkpt lat="50.23721" lon="2.38404">
        <ele>151.06</ele>
        <time>2022-01-16T09:59:15Z</time>
      </trkpt>
      <trkpt lat="50.23707" lon="2.38387">
        <ele>152.03</ele>
        <time>2022-01-16T09:59:28Z</time>
      </trkpt>
      <trkpt lat="50.23692" lon="2.38366">
        <ele>154.43</ele>
        <time>2022-01-16T09:59:42Z</time>
      </trkpt>
      <trkpt lat="50.23679" lon="2.38345">
        <ele>154.91</ele>
        <time>2022-01-16T09:59:56Z</time>
      </trkpt>
      <trkpt lat="50.23664" lon="2.38318">
        <ele>154.43</ele>
        <time>2022-01-16T10:00:12Z</time>
      </trkpt>
      <trkpt lat="50.23647" lon="2.38288">
        <ele>154.91</ele>
        <time>2022-01-16T10:00:31Z</time>
      </trkpt>
      <trkpt lat="50.23632" lon="2.38262">
        <ele>154.91</ele>
        <time>2022-01-16T10:00:48Z</time>
      </trkpt>
      <trkpt lat="50.23617" lon="2.38234">
        <ele>155.87</ele>
        <time>2022-01-16T10:01:05Z</time>
      </trkpt>
      <trkpt lat="50.23603" lon="2.38211">
        <ele>155.39</ele>
        <time>2022-01-16T10:01:21Z</time>
      </trkpt>
      <trkpt lat="50.23588" lon="2.38185">
        <ele>156.35</ele>
        <time>2022-01-16T10:01:38Z</time>
      </trkpt>
      <trkpt lat="50.23571" lon="2.38155">
        <ele>156.35</ele>
        <time>2022-01-16T10:01:56Z</time>
      </trkpt>
      <trkpt lat="50.23555" lon="2.38127">
        <ele>156.83</ele>
        <time>2022-01-16T10:02:13Z</time>
      </trkpt>
      <trkpt lat="50.23536" lon="2.38094">
        <ele>156.83</ele>
        <time>2022-01-16T10:02:33Z</time>
      </trkpt>
      <trkpt lat="50.23522" lon="2.38067">
        <ele>156.35</ele>
        <time>2022-01-16T10:02:49Z</time>
      </trkpt>
      <trkpt lat="50.23503" lon="2.38032">
        <ele>156.35</ele>
        <time>2022-01-16T10:03:10Z</time>
      </trkpt>
      <trkpt lat="50.23488" lon="2.38006">
        <ele>156.35</ele>
        <time>2022-01-16T10:03:26Z</time>
      </trkpt>
      <trkpt lat="50.23473" lon="2.3798">
        <ele>155.87</ele>
        <time>2022-01-16T10:03:42Z</time>
      </trkpt>
      <trkpt lat="50.23459" lon="2.37951">
        <ele>156.83</ele>
        <time>2022-01-16T10:03:59Z</time>
      </trkpt>
      <trkpt lat="50.23444" lon="2.37923">
        <ele>156.83</ele>
        <time>2022-01-16T10:04:16Z</time>
      </trkpt>
      <trkpt lat="50.23431" lon="2.37896">
        <ele>156.83</ele>
        <time>2022-01-16T10:04:32Z</time>
      </trkpt>
      <trkpt lat="50.23415" lon="2.37865">
        <ele>156.83</ele>
        <time>2022-01-16T10:04:51Z</time>
      </trkpt>
      <trkpt lat="50.234" lon="2.37838">
        <ele>157.79</ele>
        <time>2022-01-16T10:05:07Z</time>
      </trkpt>
      <trkpt lat="50.23385" lon="2.37809">
        <ele>157.79</ele>
        <time>2022-01-16T10:05:25Z</time>
      </trkpt>
      <trkpt lat="50.23371" lon="2.37783">
        <ele>157.31</ele>
        <time>2022-01-16T10:05:41Z</time>
      </trkpt>
      <trkpt lat="50.23359" lon="2.37758">
        <ele>156.35</ele>
        <time>2022-01-16T10:05:57Z</time>
      </trkpt>
      <trkpt lat="50.23344" lon="2.3773">
        <ele>155.87</ele>
        <time>2022-01-16T10:06:15Z</time>
      </trkpt>
      <trkpt lat="50.2333" lon="2.37703">
        <ele>156.35</ele>
        <time>2022-01-16T10:06:32Z</time>
      </trkpt>
      <trkpt lat="50.23317" lon="2.37679">
        <ele>156.83</ele>
        <time>2022-01-16T10:06:47Z</time>
      </trkpt>
      <trkpt lat="50.23301" lon="2.37649">
        <ele>157.79</ele>
        <time>2022-01-16T10:07:06Z</time>
      </trkpt>
      <trkpt lat="50.23285" lon="2.37619">
        <ele>156.35</ele>
        <time>2022-01-16T10:07:24Z</time>
      </trkpt>
      <trkpt lat="50.23273" lon="2.37595">
        <ele>156.83</ele>
        <time>2022-01-16T10:07:39Z</time>
      </trkpt>
      <trkpt lat="50.2326" lon="2.3757">
        <ele>157.31</ele>
        <time>2022-01-16T10:07:54Z</time>
      </trkpt>
      <trkpt lat="50.23246" lon="2.37542">
        <ele>156.83</ele>
        <time>2022-01-16T10:08:11Z</time>
      </trkpt>
      <trkpt lat="50.23231" lon="2.37514">
        <ele>156.35</ele>
        <time>2022-01-16T10:08:29Z</time>
      </trkpt>
      <trkpt lat="50.2322" lon="2.37491">
        <ele>156.83</ele>
        <time>2022-01-16T10:08:43Z</time>
      </trkpt>
      <trkpt lat="50.23207" lon="2.37464">
        <ele>155.87</ele>
        <time>2022-01-16T10:08:59Z</time>
      </trkpt>
      <trkpt lat="50.23195" lon="2.37438">
        <ele>155.39</ele>
        <time>2022-01-16T10:09:15Z</time>
      </trkpt>
      <trkpt lat="50.23183" lon="2.37412">
        <ele>154.91</ele>
        <time>2022-01-16T10:09:31Z</time>
      </trkpt>
      <trkpt lat="50.23172" lon="2.37387">
        <ele>154.91</ele>
        <time>2022-01-16T10:09:46Z</time>
      </trkpt>
      <trkpt lat="50.2316" lon="2.37362">
        <ele>154.91</ele>
        <time>2022-01-16T10:10:01Z</time>
      </trkpt>
      <trkpt lat="50.23147" lon="2.37337">
        <ele>154.91</ele>
        <time>2022-01-16T10:10:17Z</time>
      </trkpt>
      <trkpt lat="50.23134" lon="2.37314">
        <ele>155.87</ele>
        <time>2022-01-16T10:10:31Z</time>
      </trkpt>
      <trkpt lat="50.2312" lon="2.37288">
        <ele>156.83</ele>
        <time>2022-01-16T10:10:48Z</time>
      </trkpt>
      <trkpt lat="50.23105" lon="2.37261">
        <ele>157.79</ele>
        <time>2022-01-16T10:11:05Z</time>
      </trkpt>
      <trkpt lat="50.23092" lon="2.37239">
        <ele>157.31</ele>
        <time>2022-01-16T10:11:20Z</time>
      </trkpt>
      <trkpt lat="50.23076" lon="2.37218">
        <ele>158.27</ele>
        <time>2022-01-16T10:11:35Z</time>
      </trkpt>
      <trkpt lat="50.23062" lon="2.37195">
        <ele>158.27</ele>
        <time>2022-01-16T10:11:51Z</time>
      </trkpt>
      <trkpt lat="50.2305" lon="2.37175">
        <ele>158.75</ele>
        <time>2022-01-16T10:12:04Z</time>
      </trkpt>
      <trkpt lat="50.23035" lon="2.37151">
        <ele>159.72</ele>
        <time>2022-01-16T10:12:19Z</time>
      </trkpt>
      <trkpt lat="50.23021" lon="2.37128">
        <ele>158.27</ele>
        <time>2022-01-16T10:12:33Z</time>
      </trkpt>
      <trkpt lat="50.23005" lon="2.37098">
        <ele>157.31</ele>
        <time>2022-01-16T10:12:50Z</time>
      </trkpt>
      <trkpt lat="50.22989" lon="2.37066">
        <ele>158.27</ele>
        <time>2022-01-16T10:13:08Z</time>
      </trkpt>
      <trkpt lat="50.22977" lon="2.37038">
        <ele>159.24</ele>
        <time>2022-01-16T10:13:23Z</time>
      </trkpt>
      <trkpt lat="50.22964" lon="2.37006">
        <ele>158.75</ele>
        <time>2022-01-16T10:13:40Z</time>
      </trkpt>
      <trkpt lat="50.22953" lon="2.36978">
        <ele>158.75</ele>
        <time>2022-01-16T10:13:55Z</time>
      </trkpt>
      <trkpt lat="50.22943" lon="2.36951">
        <ele>158.27</ele>
        <time>2022-01-16T10:14:10Z</time>
      </trkpt>
      <trkpt lat="50.22931" lon="2.3693">
        <ele>156.83</ele>
        <time>2022-01-16T10:14:24Z</time>
      </trkpt>
      <trkpt lat="50.22918" lon="2.36916">
        <ele>155.39</ele>
        <time>2022-01-16T10:14:38Z</time>
      </trkpt>
      <trkpt lat="50.22916" lon="2.36904">
        <ele>154.91</ele>
        <time>2022-01-16T10:14:50Z</time>
      </trkpt>
      <trkpt lat="50.22915" lon="2.36904">
        <ele>155.87</ele>
        <time>2022-01-16T10:15:09Z</time>
      </trkpt>
      <trkpt lat="50.22915" lon="2.36904">
        <ele>155.87</ele>
        <time>2022-01-16T10:15:28Z</time>
      </trkpt>
      <trkpt lat="50.22915" lon="2.36904">
        <ele>155.87</ele>
        <time>2022-01-16T10:15:54Z</time>
      </trkpt>
      <trkpt lat="50.22915" lon="2.36904">
        <ele>155.87</ele>
        <time>2022-01-16T10:16:12Z</time>
      </trkpt>
      <trkpt lat="50.22915" lon="2.36902">
        <ele>155.87</ele>
        <time>2022-01-16T10:16:32Z</time>
      </trkpt>
      <trkpt lat="50.22908" lon="2.36875">
        <ele>155.39</ele>
        <time>2022-01-16T10:16:46Z</time>
      </trkpt>
      <trkpt lat="50.22898" lon="2.36847">
        <ele>154.91</ele>
        <time>2022-01-16T10:17:02Z</time>
      </trkpt>
      <trkpt lat="50.22886" lon="2.36824">
        <ele>154.91</ele>
        <time>2022-01-16T10:17:17Z</time>
      </trkpt>
      <trkpt lat="50.22873" lon="2.368">
        <ele>155.39</ele>
        <time>2022-01-16T10:17:33Z</time>
      </trkpt>
      <trkpt lat="50.22859" lon="2.36776">
        <ele>154.43</ele>
        <time>2022-01-16T10:17:49Z</time>
      </trkpt>
      <trkpt lat="50.22846" lon="2.36755">
        <ele>153.95</ele>
        <time>2022-01-16T10:18:04Z</time>
      </trkpt>
      <trkpt lat="50.22828" lon="2.36733">
        <ele>152.99</ele>
        <time>2022-01-16T10:18:21Z</time>
      </trkpt>
      <trkpt lat="50.22815" lon="2.36716">
        <ele>152.99</ele>
        <time>2022-01-16T10:18:34Z</time>
      </trkpt>
      <trkpt lat="50.22799" lon="2.36696">
        <ele>152.03</ele>
        <time>2022-01-16T10:18:49Z</time>
      </trkpt>
      <trkpt lat="50.22797" lon="2.36694">
        <ele>152.03</ele>
        <time>2022-01-16T10:18:51Z</time>
      </trkpt>
      <trkpt lat="50.22783" lon="2.36676">
        <ele>150.1</ele>
        <time>2022-01-16T10:19:05Z</time>
      </trkpt>
      <trkpt lat="50.22767" lon="2.36659">
        <ele>148.18</ele>
        <time>2022-01-16T10:19:19Z</time>
      </trkpt>
      <trkpt lat="50.22752" lon="2.36642">
        <ele>146.74</ele>
        <time>2022-01-16T10:19:33Z</time>
      </trkpt>
      <trkpt lat="50.22736" lon="2.36628">
        <ele>147.7</ele>
        <time>2022-01-16T10:19:46Z</time>
      </trkpt>
      <trkpt lat="50.2272" lon="2.36618">
        <ele>147.7</ele>
        <time>2022-01-16T10:19:59Z</time>
      </trkpt>
      <trkpt lat="50.22699" lon="2.36615">
        <ele>144.82</ele>
        <time>2022-01-16T10:20:15Z</time>
      </trkpt>
      <trkpt lat="50.22683" lon="2.36617">
        <ele>144.34</ele>
        <time>2022-01-16T10:20:27Z</time>
      </trkpt>
      <trkpt lat="50.22672" lon="2.36618">
        <ele>143.85</ele>
        <time>2022-01-16T10:20:35Z</time>
      </trkpt>
      <trkpt lat="50.22661" lon="2.36619">
        <ele>142.89</ele>
        <time>2022-01-16T10:20:43Z</time>
      </trkpt>
      <trkpt lat="50.2264" lon="2.36624">
        <ele>141.93</ele>
        <time>2022-01-16T10:20:57Z</time>
      </trkpt>
      <trkpt lat="50.22619" lon="2.36627">
        <ele>141.45</ele>
        <time>2022-01-16T10:21:12Z</time>
      </trkpt>
      <trkpt lat="50.22601" lon="2.36631">
        <ele>140.49</ele>
        <time>2022-01-16T10:21:26Z</time>
      </trkpt>
      <trkpt lat="50.22585" lon="2.36634">
        <ele>139.53</ele>
        <time>2022-01-16T10:21:38Z</time>
      </trkpt>
      <trkpt lat="50.22566" lon="2.36636">
        <ele>138.57</ele>
        <time>2022-01-16T10:21:51Z</time>
      </trkpt>
      <trkpt lat="50.22549" lon="2.3664">
        <ele>137.13</ele>
        <time>2022-01-16T10:22:04Z</time>
      </trkpt>
      <trkpt lat="50.22537" lon="2.36645">
        <ele>135.2</ele>
        <time>2022-01-16T10:22:13Z</time>
      </trkpt>
      <trkpt lat="50.22522" lon="2.36651">
        <ele>132.8</ele>
        <time>2022-01-16T10:22:26Z</time>
      </trkpt>
      <trkpt lat="50.2252" lon="2.36651">
        <ele>132.32</ele>
        <time>2022-01-16T10:22:27Z</time>
      </trkpt>
      <trkpt lat="50.22507" lon="2.36653">
        <ele>132.8</ele>
        <time>2022-01-16T10:22:37Z</time>
      </trkpt>
      <trkpt lat="50.22487" lon="2.36655">
        <ele>136.16</ele>
        <time>2022-01-16T10:22:52Z</time>
      </trkpt>
      <trkpt lat="50.22472" lon="2.36653">
        <ele>136.64</ele>
        <time>2022-01-16T10:23:04Z</time>
      </trkpt>
      <trkpt lat="50.22455" lon="2.36652">
        <ele>138.09</ele>
        <time>2022-01-16T10:23:16Z</time>
      </trkpt>
      <trkpt lat="50.22436" lon="2.36652">
        <ele>137.61</ele>
        <time>2022-01-16T10:23:30Z</time>
      </trkpt>
      <trkpt lat="50.2242" lon="2.36651">
        <ele>137.13</ele>
        <time>2022-01-16T10:23:42Z</time>
      </trkpt>
      <trkpt lat="50.22402" lon="2.36647">
        <ele>136.16</ele>
        <time>2022-01-16T10:23:56Z</time>
      </trkpt>
      <trkpt lat="50.22397" lon="2.36647">
        <ele>135.68</ele>
        <time>2022-01-16T10:24:00Z</time>
      </trkpt>
      <trkpt lat="50.22389" lon="2.36645">
        <ele>135.68</ele>
        <time>2022-01-16T10:24:06Z</time>
      </trkpt>
      <trkpt lat="50.22381" lon="2.36644">
        <ele>134.72</ele>
        <time>2022-01-16T10:24:12Z</time>
      </trkpt>
      <trkpt lat="50.22362" lon="2.36638">
        <ele>134.72</ele>
        <time>2022-01-16T10:24:26Z</time>
      </trkpt>
      <trkpt lat="50.22342" lon="2.3663">
        <ele>135.2</ele>
        <time>2022-01-16T10:24:41Z</time>
      </trkpt>
      <trkpt lat="50.22328" lon="2.36618">
        <ele>135.2</ele>
        <time>2022-01-16T10:24:53Z</time>
      </trkpt>
      <trkpt lat="50.22312" lon="2.36607">
        <ele>137.13</ele>
        <time>2022-01-16T10:25:06Z</time>
      </trkpt>
      <trkpt lat="50.22305" lon="2.36602">
        <ele>136.64</ele>
        <time>2022-01-16T10:25:12Z</time>
      </trkpt>
      <trkpt lat="50.22293" lon="2.36593">
        <ele>136.16</ele>
        <time>2022-01-16T10:25:23Z</time>
      </trkpt>
      <trkpt lat="50.22279" lon="2.36599">
        <ele>134.24</ele>
        <time>2022-01-16T10:25:37Z</time>
      </trkpt>
      <trkpt lat="50.22272" lon="2.36619">
        <ele>132.32</ele>
        <time>2022-01-16T10:25:50Z</time>
      </trkpt>
      <trkpt lat="50.22268" lon="2.36639">
        <ele>133.76</ele>
        <time>2022-01-16T10:26:02Z</time>
      </trkpt>
      <trkpt lat="50.22259" lon="2.36655">
        <ele>134.72</ele>
        <time>2022-01-16T10:26:14Z</time>
      </trkpt>
      <trkpt lat="50.22258" lon="2.36656">
        <ele>135.68</ele>
        <time>2022-01-16T10:26:23Z</time>
      </trkpt>
      <trkpt lat="50.22257" lon="2.36656">
        <ele>135.68</ele>
        <time>2022-01-16T10:26:30Z</time>
      </trkpt>
    </trkseg>
  </trk>
  <trk>
    <name><![CDATA[Tracé actuel: 13 JAN 2022 00:50]]></name>
    <trkseg>
      <trkpt lat="50.21419" lon="2.33705">
        <ele>136.16</ele>
        <time>2022-01-12T23:50:00Z</time>
      </trkpt>
      <trkpt lat="50.21422" lon="2.3371">
        <ele>145.3</ele>
        <time>2022-01-12T23:50:23Z</time>
      </trkpt>
      <trkpt lat="50.21415" lon="2.3371">
        <ele>156.35</ele>
        <time>2022-01-12T23:50:43Z</time>
      </trkpt>
      <trkpt lat="50.21417" lon="2.33712">
        <ele>159.72</ele>
        <time>2022-01-12T23:50:54Z</time>
      </trkpt>
    </trkseg>
  </trk>
  <trk>
    <name><![CDATA[Tracé actuel: 15 JAN 2022 19:54]]></name>
    <trkseg>
      <trkpt lat="50.2142" lon="2.33688">
        <ele>177.98</ele>
        <time>2022-01-15T18:54:05Z</time>
      </trkpt>
      <trkpt lat="50.2142" lon="2.33694">
        <ele>183.75</ele>
        <time>2022-01-15T18:54:16Z</time>
      </trkpt>
    </trkseg>
  </trk>
</gpx>